KLM569 EHAM-HTKJ
Flight info
| Callsign | KLM569 |
|---|---|
| Flight time | 8h 29m |
| Altitude | 37000 |
| Route | EDUPO Z739 MISGO DCT DOJOH DCT DODEN DCT NEGIX DCT DINKU M867 XERUM DCT BAVAX DCT RADIZ DCT NIPEL DCT ABISO DCT NEMEK DCT GLOMY DCT PETAK DCT ADDER DCT DIMIS UL604 SALUN N705 BOPIX N710 TAKRI P751 LXR M999 JDW G650 RASKA UG650 KONET UM308 LOTAS DCT GETOM DCT APDIK APDIK2A |
| Aircraft | B772/H-SDE2E3FGHIJ3J5P2RWXYZ/LB1D1 |
Departure
| Time | 2026-05-06 05:37 |
|---|---|
| Airport | Amsterdam Airport Schiphol (EHAM) |
Arrival
| Time | 2026-05-06 14:06 |
|---|---|
| Airport | Kilimanjaro International Airport (HTKJ) |
| Time | Latitude | Longitude | Altitude | Speed | Heading |
|---|---|---|---|---|---|
| 2026-05-06 05:18 | 52.31285 | 4.75591 | 3 ft | 0 kts | 86° |
| 2026-05-06 05:29 | 52.31285 | 4.75577 | 4 ft | 4 kts | 85° |
| 2026-05-06 05:29 | 52.31282 | 4.75534 | 3 ft | 4 kts | 79° |
| 2026-05-06 05:30 | 52.31274 | 4.75491 | 3 ft | 4 kts | 64° |
| 2026-05-06 05:30 | 52.31260 | 4.75460 | 3 ft | 4 kts | 17° |
| 2026-05-06 05:30 | 52.31256 | 4.75457 | 4 ft | 4 kts | 356° |
| 2026-05-06 05:30 | 52.31283 | 4.75454 | 3 ft | 4 kts | 356° |
| 2026-05-06 05:31 | 52.31310 | 4.75452 | 3 ft | 4 kts | 356° |
| 2026-05-06 05:31 | 52.31337 | 4.75449 | 3 ft | 4 kts | 356° |
| 2026-05-06 05:31 | 52.31355 | 4.75448 | 3 ft | 0 kts | 356° |
| 2026-05-06 05:33 | 52.31357 | 4.75448 | 3 ft | 2 kts | 356° |
| 2026-05-06 05:34 | 52.31415 | 4.75442 | 3 ft | 14 kts | 356° |
| 2026-05-06 05:34 | 52.31500 | 4.75416 | 3 ft | 11 kts | 315° |
| 2026-05-06 05:34 | 52.31507 | 4.75296 | 3 ft | 11 kts | 266° |
| 2026-05-06 05:34 | 52.31502 | 4.75174 | 3 ft | 11 kts | 266° |
| 2026-05-06 05:35 | 52.31498 | 4.75052 | 3 ft | 11 kts | 266° |
| 2026-05-06 05:35 | 52.31494 | 4.74930 | 4 ft | 11 kts | 267° |
| 2026-05-06 05:35 | 52.31490 | 4.74808 | 4 ft | 11 kts | 267° |
| 2026-05-06 05:35 | 52.31492 | 4.74687 | 4 ft | 11 kts | 295° |
| 2026-05-06 05:36 | 52.31559 | 4.74664 | 3 ft | 10 kts | 4° |
| 2026-05-06 05:36 | 52.31629 | 4.74687 | 4 ft | 10 kts | 17° |
| 2026-05-06 05:36 | 52.31667 | 4.74774 | 4 ft | 11 kts | 85° |
| 2026-05-06 05:36 | 52.31680 | 4.75138 | 1 ft | 63 kts | 86° |
| 2026-05-06 05:37 | 52.31718 | 4.76237 | 4 ft | 128 kts | 86° |
| 2026-05-06 05:37 | 52.31790 | 4.77996 | 87 ft | 172 kts | 85° |
| 2026-05-06 05:37 | 52.31863 | 4.79893 | 751 ft | 168 kts | 85° |
| 2026-05-06 05:37 | 52.31933 | 4.81839 | 1309 ft | 180 kts | 86° |
| 2026-05-06 05:38 | 52.31999 | 4.84020 | 1543 ft | 204 kts | 86° |
| 2026-05-06 05:38 | 52.32039 | 4.86473 | 1693 ft | 226 kts | 95° |
| 2026-05-06 05:38 | 52.31524 | 4.89007 | 1882 ft | 245 kts | 115° |
| 2026-05-06 05:38 | 52.30785 | 4.91560 | 2382 ft | 252 kts | 112° |
| 2026-05-06 05:39 | 52.30078 | 4.94218 | 2997 ft | 255 kts | 111° |
| 2026-05-06 05:39 | 52.29390 | 4.96908 | 3692 ft | 256 kts | 108° |
| 2026-05-06 05:39 | 52.28863 | 4.99696 | 4267 ft | 259 kts | 103° |
| 2026-05-06 05:39 | 52.28389 | 5.02558 | 4902 ft | 262 kts | 104° |
| 2026-05-06 05:40 | 52.27911 | 5.05449 | 5551 ft | 264 kts | 104° |
| 2026-05-06 05:40 | 52.27425 | 5.08357 | 6136 ft | 267 kts | 104° |
| 2026-05-06 05:40 | 52.26928 | 5.11300 | 6725 ft | 270 kts | 104° |
| 2026-05-06 05:40 | 52.26415 | 5.14269 | 7297 ft | 273 kts | 105° |
| 2026-05-06 05:41 | 52.25897 | 5.17233 | 7824 ft | 277 kts | 105° |
| 2026-05-06 05:41 | 52.25364 | 5.20264 | 8355 ft | 279 kts | 105° |
| 2026-05-06 05:41 | 52.24827 | 5.23331 | 8862 ft | 282 kts | 105° |
| 2026-05-06 05:41 | 52.24200 | 5.26368 | 9272 ft | 283 kts | 116° |
| 2026-05-06 05:42 | 52.23148 | 5.29133 | 9652 ft | 289 kts | 125° |
| 2026-05-06 05:42 | 52.21950 | 5.31786 | 10111 ft | 294 kts | 126° |
| 2026-05-06 05:42 | 52.20691 | 5.34532 | 10231 ft | 311 kts | 126° |
| 2026-05-06 05:42 | 52.19372 | 5.37445 | 10379 ft | 329 kts | 126° |
| 2026-05-06 05:43 | 52.17986 | 5.40556 | 10665 ft | 347 kts | 126° |
| 2026-05-06 05:43 | 52.16557 | 5.43794 | 11259 ft | 356 kts | 125° |
| 2026-05-06 05:43 | 52.15104 | 5.47109 | 11957 ft | 362 kts | 125° |
| 2026-05-06 05:43 | 52.13636 | 5.50468 | 12760 ft | 365 kts | 125° |
| 2026-05-06 05:44 | 52.12161 | 5.53843 | 13545 ft | 368 kts | 125° |
| 2026-05-06 05:44 | 52.10670 | 5.57251 | 14266 ft | 372 kts | 125° |
| 2026-05-06 05:44 | 52.09160 | 5.60699 | 14955 ft | 376 kts | 126° |
| 2026-05-06 05:44 | 52.07633 | 5.64175 | 15648 ft | 379 kts | 126° |
| 2026-05-06 05:45 | 52.06093 | 5.67670 | 16292 ft | 383 kts | 127° |
| 2026-05-06 05:45 | 52.04417 | 5.71057 | 16899 ft | 387 kts | 131° |
| 2026-05-06 05:45 | 52.02618 | 5.74340 | 17483 ft | 391 kts | 132° |
| 2026-05-06 05:45 | 52.00798 | 5.77648 | 18067 ft | 394 kts | 132° |
| 2026-05-06 05:46 | 51.98984 | 5.81003 | 18642 ft | 397 kts | 131° |
| 2026-05-06 05:46 | 51.97166 | 5.84398 | 19209 ft | 400 kts | 131° |
| 2026-05-06 05:46 | 51.95333 | 5.87814 | 19751 ft | 403 kts | 131° |
| 2026-05-06 05:46 | 51.93486 | 5.91257 | 20280 ft | 406 kts | 131° |
| 2026-05-06 05:47 | 51.91644 | 5.94684 | 20781 ft | 409 kts | 131° |
| 2026-05-06 05:47 | 51.89769 | 5.98168 | 21273 ft | 412 kts | 131° |
| 2026-05-06 05:47 | 51.87880 | 6.01674 | 21754 ft | 415 kts | 131° |
| 2026-05-06 05:47 | 51.85973 | 6.05205 | 22233 ft | 418 kts | 131° |
| 2026-05-06 05:48 | 51.84052 | 6.08744 | 22715 ft | 420 kts | 132° |
| 2026-05-06 05:48 | 51.82108 | 6.12299 | 23162 ft | 423 kts | 132° |
| 2026-05-06 05:48 | 51.80153 | 6.15874 | 23618 ft | 425 kts | 132° |
| 2026-05-06 05:48 | 51.78187 | 6.19467 | 24059 ft | 428 kts | 132° |
| 2026-05-06 05:49 | 51.76208 | 6.23074 | 24508 ft | 430 kts | 132° |
| 2026-05-06 05:49 | 51.74221 | 6.26702 | 24943 ft | 432 kts | 132° |
| 2026-05-06 05:49 | 51.72223 | 6.30349 | 25366 ft | 434 kts | 132° |
| 2026-05-06 05:49 | 51.70218 | 6.34007 | 25797 ft | 436 kts | 132° |
| 2026-05-06 05:50 | 51.68204 | 6.37677 | 26207 ft | 438 kts | 132° |
| 2026-05-06 05:50 | 51.66864 | 6.40117 | 26485 ft | 439 kts | 132° |
| 2026-05-06 05:50 | 51.64833 | 6.43804 | 26893 ft | 441 kts | 131° |
| 2026-05-06 05:50 | 51.62129 | 6.48710 | 27390 ft | 444 kts | 132° |
| 2026-05-06 05:51 | 51.60074 | 6.52425 | 27758 ft | 446 kts | 132° |
| 2026-05-06 05:51 | 51.58009 | 6.56154 | 28124 ft | 448 kts | 132° |
| 2026-05-06 05:51 | 51.55935 | 6.59899 | 28482 ft | 449 kts | 132° |
| 2026-05-06 05:51 | 51.53849 | 6.63656 | 28832 ft | 451 kts | 132° |
| 2026-05-06 05:52 | 51.52435 | 6.66204 | 29068 ft | 453 kts | 132° |
| 2026-05-06 05:52 | 51.50334 | 6.69983 | 29360 ft | 455 kts | 132° |
| 2026-05-06 05:52 | 51.48214 | 6.73790 | 29666 ft | 457 kts | 132° |
| 2026-05-06 05:52 | 51.46091 | 6.77600 | 29972 ft | 459 kts | 132° |
| 2026-05-06 05:53 | 51.43983 | 6.81375 | 30262 ft | 461 kts | 132° |
| 2026-05-06 05:53 | 51.41839 | 6.85205 | 30543 ft | 462 kts | 132° |
| 2026-05-06 05:53 | 51.39653 | 6.88995 | 30817 ft | 464 kts | 135° |
| 2026-05-06 05:53 | 51.37336 | 6.92609 | 31075 ft | 466 kts | 136° |
| 2026-05-06 05:54 | 51.34993 | 6.96214 | 31278 ft | 468 kts | 136° |
| 2026-05-06 05:54 | 51.32645 | 6.99825 | 31501 ft | 470 kts | 136° |
| 2026-05-06 05:54 | 51.30289 | 7.03447 | 31781 ft | 470 kts | 136° |
| 2026-05-06 05:54 | 51.27943 | 7.07066 | 32136 ft | 468 kts | 136° |
| 2026-05-06 05:55 | 51.25604 | 7.10674 | 32482 ft | 467 kts | 136° |
| 2026-05-06 05:55 | 51.23274 | 7.14268 | 32778 ft | 466 kts | 136° |
| 2026-05-06 05:55 | 51.20940 | 7.17862 | 33069 ft | 465 kts | 136° |
| 2026-05-06 05:55 | 51.18615 | 7.21438 | 33371 ft | 465 kts | 136° |
| 2026-05-06 05:56 | 51.16282 | 7.25014 | 33667 ft | 463 kts | 136° |
| 2026-05-06 05:56 | 51.13964 | 7.28573 | 33942 ft | 463 kts | 136° |
| 2026-05-06 05:56 | 51.11671 | 7.32086 | 34195 ft | 463 kts | 137° |
| 2026-05-06 05:56 | 51.09345 | 7.35640 | 34426 ft | 463 kts | 137° |
| 2026-05-06 05:57 | 51.07016 | 7.39194 | 34629 ft | 465 kts | 137° |
| 2026-05-06 05:57 | 51.04681 | 7.42750 | 34845 ft | 465 kts | 137° |
| 2026-05-06 05:57 | 51.02340 | 7.46310 | 35038 ft | 466 kts | 137° |
| 2026-05-06 05:57 | 50.99995 | 7.49875 | 35241 ft | 467 kts | 137° |
| 2026-05-06 05:58 | 50.97644 | 7.53443 | 35466 ft | 467 kts | 137° |
| 2026-05-06 05:58 | 50.95292 | 7.57005 | 35665 ft | 468 kts | 137° |
| 2026-05-06 05:58 | 50.92934 | 7.60573 | 35835 ft | 469 kts | 137° |
| 2026-05-06 05:58 | 50.90570 | 7.64147 | 36024 ft | 470 kts | 137° |
| 2026-05-06 05:59 | 50.88207 | 7.67715 | 36229 ft | 470 kts | 137° |
| 2026-05-06 05:59 | 50.85834 | 7.71290 | 36390 ft | 471 kts | 137° |
| 2026-05-06 05:59 | 50.83456 | 7.74864 | 36540 ft | 473 kts | 137° |
| 2026-05-06 05:59 | 50.81061 | 7.78443 | 36673 ft | 474 kts | 138° |
| 2026-05-06 06:00 | 50.76277 | 7.85545 | 36739 ft | 467 kts | 138° |
| 2026-05-06 06:00 | 50.71580 | 7.92504 | 36745 ft | 461 kts | 138° |
| 2026-05-06 06:01 | 50.66891 | 7.99437 | 36755 ft | 462 kts | 138° |
| 2026-05-06 06:01 | 50.62192 | 8.06366 | 36753 ft | 463 kts | 138° |
| 2026-05-06 06:02 | 50.57808 | 8.13819 | 36750 ft | 466 kts | 129° |
| 2026-05-06 06:02 | 50.53803 | 8.21846 | 36746 ft | 466 kts | 130° |
| 2026-05-06 06:03 | 50.49768 | 8.29825 | 36759 ft | 467 kts | 130° |
| 2026-05-06 06:03 | 50.45697 | 8.37802 | 36764 ft | 468 kts | 130° |
| 2026-05-06 06:04 | 50.41647 | 8.45710 | 36767 ft | 468 kts | 130° |
| 2026-05-06 06:04 | 50.37552 | 8.53637 | 36774 ft | 467 kts | 132° |
| 2026-05-06 06:05 | 50.33142 | 8.61105 | 36779 ft | 466 kts | 135° |
| 2026-05-06 06:05 | 50.28685 | 8.68493 | 36771 ft | 467 kts | 135° |
| 2026-05-06 06:06 | 50.24234 | 8.75887 | 36765 ft | 467 kts | 134° |
| 2026-05-06 06:06 | 50.19794 | 8.83274 | 36769 ft | 466 kts | 135° |
| 2026-05-06 06:07 | 50.15355 | 8.90643 | 36772 ft | 465 kts | 135° |
| 2026-05-06 06:07 | 50.10921 | 8.97979 | 36777 ft | 464 kts | 135° |
| 2026-05-06 06:08 | 50.06491 | 9.05283 | 36774 ft | 464 kts | 135° |
| 2026-05-06 06:08 | 50.02049 | 9.12591 | 36781 ft | 465 kts | 135° |
| 2026-05-06 06:09 | 49.97587 | 9.19913 | 36778 ft | 467 kts | 135° |
| 2026-05-06 06:09 | 49.93131 | 9.27201 | 36787 ft | 469 kts | 135° |
| 2026-05-06 06:10 | 49.88627 | 9.34546 | 36791 ft | 470 kts | 135° |
| 2026-05-06 06:10 | 49.84108 | 9.41896 | 36790 ft | 471 kts | 136° |
| 2026-05-06 06:11 | 49.79571 | 9.49250 | 36787 ft | 472 kts | 136° |
| 2026-05-06 06:11 | 49.75033 | 9.56593 | 36794 ft | 472 kts | 136° |
| 2026-05-06 06:12 | 49.70484 | 9.63925 | 36796 ft | 472 kts | 136° |
| 2026-05-06 06:12 | 49.65932 | 9.71235 | 36794 ft | 472 kts | 136° |
| 2026-05-06 06:13 | 49.61385 | 9.78524 | 36796 ft | 471 kts | 136° |
| 2026-05-06 06:13 | 49.56843 | 9.85785 | 36797 ft | 470 kts | 136° |
| 2026-05-06 06:14 | 49.52302 | 9.93020 | 36799 ft | 469 kts | 136° |
| 2026-05-06 06:14 | 49.47763 | 10.00233 | 36810 ft | 469 kts | 136° |
| 2026-05-06 06:15 | 49.43222 | 10.07428 | 36803 ft | 469 kts | 136° |
| 2026-05-06 06:15 | 49.38683 | 10.14604 | 36806 ft | 468 kts | 136° |
| 2026-05-06 06:16 | 49.34137 | 10.21767 | 36804 ft | 468 kts | 136° |
| 2026-05-06 06:16 | 49.29614 | 10.28877 | 36803 ft | 468 kts | 136° |
| 2026-05-06 06:17 | 49.25032 | 10.35965 | 36803 ft | 467 kts | 140° |
| 2026-05-06 06:17 | 49.19859 | 10.41878 | 36807 ft | 463 kts | 152° |
| 2026-05-06 06:18 | 49.14299 | 10.46834 | 36816 ft | 463 kts | 152° |
| 2026-05-06 06:18 | 49.08744 | 10.51832 | 36814 ft | 463 kts | 152° |
| 2026-05-06 06:19 | 49.03202 | 10.56857 | 36834 ft | 463 kts | 152° |
| 2026-05-06 06:19 | 48.97659 | 10.61882 | 36833 ft | 464 kts | 152° |
| 2026-05-06 06:20 | 48.92113 | 10.66892 | 36821 ft | 464 kts | 152° |
| 2026-05-06 06:20 | 48.86564 | 10.71892 | 36835 ft | 464 kts | 152° |
| 2026-05-06 06:21 | 48.81204 | 10.77337 | 36833 ft | 466 kts | 143° |
| 2026-05-06 06:21 | 48.76567 | 10.84229 | 36820 ft | 468 kts | 134° |
| 2026-05-06 06:22 | 48.72243 | 10.91601 | 36841 ft | 468 kts | 134° |
| 2026-05-06 06:22 | 48.67898 | 10.98937 | 36835 ft | 468 kts | 135° |
| 2026-05-06 06:23 | 48.63535 | 11.06240 | 36836 ft | 468 kts | 135° |
| 2026-05-06 06:23 | 48.59186 | 11.13473 | 36834 ft | 468 kts | 135° |
| 2026-05-06 06:24 | 48.54797 | 11.20755 | 36835 ft | 469 kts | 135° |
| 2026-05-06 06:24 | 48.50406 | 11.28027 | 36834 ft | 469 kts | 135° |
| 2026-05-06 06:25 | 48.46010 | 11.35295 | 36834 ft | 469 kts | 135° |
| 2026-05-06 06:26 | 48.39403 | 11.46157 | 36834 ft | 469 kts | 135° |
| 2026-05-06 06:26 | 48.34995 | 11.53391 | 36837 ft | 469 kts | 135° |
| 2026-05-06 06:27 | 48.30585 | 11.60607 | 36847 ft | 469 kts | 136° |
| 2026-05-06 06:27 | 48.26162 | 11.67791 | 36852 ft | 468 kts | 137° |
| 2026-05-06 06:28 | 48.21410 | 11.74420 | 36845 ft | 466 kts | 141° |
| 2026-05-06 06:28 | 48.16613 | 11.80934 | 36838 ft | 465 kts | 141° |
| 2026-05-06 06:29 | 48.11823 | 11.87465 | 36833 ft | 465 kts | 141° |
| 2026-05-06 06:29 | 48.07075 | 11.93948 | 36832 ft | 465 kts | 141° |
| 2026-05-06 06:30 | 48.02288 | 12.00467 | 36837 ft | 465 kts | 141° |
| 2026-05-06 06:30 | 47.97500 | 12.06974 | 36840 ft | 465 kts | 141° |
| 2026-05-06 06:31 | 47.92713 | 12.13466 | 36845 ft | 465 kts | 141° |
| 2026-05-06 06:31 | 47.87917 | 12.19948 | 36842 ft | 465 kts | 141° |
| 2026-05-06 06:32 | 47.83115 | 12.26422 | 36843 ft | 465 kts | 141° |
| 2026-05-06 06:32 | 47.78311 | 12.32881 | 36854 ft | 465 kts | 141° |
| 2026-05-06 06:33 | 47.73506 | 12.39326 | 36871 ft | 465 kts | 141° |
| 2026-05-06 06:33 | 47.68695 | 12.45770 | 36866 ft | 465 kts | 141° |
| 2026-05-06 06:34 | 47.63906 | 12.52146 | 36871 ft | 465 kts | 141° |
| 2026-05-06 06:34 | 47.59097 | 12.58596 | 36880 ft | 466 kts | 141° |
| 2026-05-06 06:35 | 47.54303 | 12.65079 | 36870 ft | 467 kts | 141° |
| 2026-05-06 06:35 | 47.49500 | 12.71557 | 36876 ft | 467 kts | 141° |
| 2026-05-06 06:36 | 47.44689 | 12.78024 | 36885 ft | 468 kts | 141° |
| 2026-05-06 06:36 | 47.39864 | 12.84484 | 36883 ft | 468 kts | 141° |
| 2026-05-06 06:37 | 47.35024 | 12.90949 | 36884 ft | 468 kts | 141° |
| 2026-05-06 06:37 | 47.31011 | 12.96304 | 36884 ft | 468 kts | 141° |
| 2026-05-06 06:38 | 47.26175 | 13.02728 | 36888 ft | 468 kts | 141° |
| 2026-05-06 06:38 | 47.21336 | 13.09146 | 36898 ft | 468 kts | 141° |
| 2026-05-06 06:39 | 47.16496 | 13.15545 | 36916 ft | 468 kts | 141° |
| 2026-05-06 06:39 | 47.11652 | 13.21936 | 36916 ft | 468 kts | 141° |
| 2026-05-06 06:40 | 47.06835 | 13.28282 | 36907 ft | 468 kts | 141° |
| 2026-05-06 06:40 | 47.01985 | 13.34646 | 36912 ft | 469 kts | 141° |
| 2026-05-06 06:41 | 46.97127 | 13.41004 | 36911 ft | 469 kts | 141° |
| 2026-05-06 06:41 | 46.92260 | 13.47360 | 36915 ft | 468 kts | 141° |
| 2026-05-06 06:42 | 46.87391 | 13.53705 | 36914 ft | 469 kts | 141° |
| 2026-05-06 06:42 | 46.82508 | 13.60047 | 36929 ft | 469 kts | 141° |
| 2026-05-06 06:43 | 46.77623 | 13.66382 | 36932 ft | 470 kts | 141° |
| 2026-05-06 06:43 | 46.72723 | 13.72714 | 36928 ft | 470 kts | 142° |
| 2026-05-06 06:44 | 46.67823 | 13.79039 | 36934 ft | 470 kts | 142° |
| 2026-05-06 06:44 | 46.62928 | 13.85335 | 36941 ft | 469 kts | 142° |
| 2026-05-06 06:45 | 46.58032 | 13.91616 | 36941 ft | 469 kts | 142° |
| 2026-05-06 06:45 | 46.53143 | 13.97878 | 36941 ft | 468 kts | 142° |
| 2026-05-06 06:46 | 46.48254 | 14.04126 | 36940 ft | 468 kts | 141° |
| 2026-05-06 06:46 | 46.43543 | 14.10677 | 36949 ft | 470 kts | 138° |
| 2026-05-06 06:47 | 46.38897 | 14.17361 | 36953 ft | 471 kts | 139° |
| 2026-05-06 06:47 | 46.34238 | 14.23952 | 36950 ft | 472 kts | 139° |
| 2026-05-06 06:48 | 46.29516 | 14.30564 | 36958 ft | 472 kts | 139° |
| 2026-05-06 06:48 | 46.24791 | 14.37168 | 36960 ft | 473 kts | 139° |
| 2026-05-06 06:49 | 46.20068 | 14.43772 | 36964 ft | 473 kts | 139° |
| 2026-05-06 06:49 | 46.15340 | 14.50367 | 36965 ft | 473 kts | 139° |
| 2026-05-06 06:50 | 46.10611 | 14.56955 | 36961 ft | 472 kts | 139° |
| 2026-05-06 06:50 | 46.05877 | 14.63529 | 36964 ft | 472 kts | 139° |
| 2026-05-06 06:51 | 46.01146 | 14.70082 | 36959 ft | 472 kts | 139° |
| 2026-05-06 06:51 | 45.96411 | 14.76628 | 36966 ft | 472 kts | 139° |
| 2026-05-06 06:52 | 45.91669 | 14.83164 | 36959 ft | 472 kts | 139° |
| 2026-05-06 06:52 | 45.86934 | 14.89675 | 36968 ft | 471 kts | 139° |
| 2026-05-06 06:53 | 45.82188 | 14.96183 | 36972 ft | 472 kts | 139° |
| 2026-05-06 06:53 | 45.77441 | 15.02685 | 36970 ft | 472 kts | 139° |
| 2026-05-06 06:54 | 45.72722 | 15.09126 | 36973 ft | 472 kts | 139° |
| 2026-05-06 06:54 | 45.67967 | 15.15597 | 36973 ft | 472 kts | 139° |
| 2026-05-06 06:55 | 45.63210 | 15.22060 | 36971 ft | 472 kts | 139° |
| 2026-05-06 06:55 | 45.58447 | 15.28515 | 36973 ft | 472 kts | 139° |
| 2026-05-06 06:56 | 45.53602 | 15.34815 | 36978 ft | 471 kts | 142° |
| 2026-05-06 06:56 | 45.48603 | 15.40855 | 36973 ft | 471 kts | 142° |
| 2026-05-06 06:57 | 45.43597 | 15.46877 | 36972 ft | 471 kts | 142° |
| 2026-05-06 06:57 | 45.38605 | 15.52931 | 36974 ft | 471 kts | 142° |
| 2026-05-06 06:58 | 45.33622 | 15.58998 | 36974 ft | 471 kts | 142° |
| 2026-05-06 06:58 | 45.28643 | 15.65058 | 36980 ft | 471 kts | 142° |
| 2026-05-06 06:59 | 45.23687 | 15.71072 | 36972 ft | 472 kts | 142° |
| 2026-05-06 06:59 | 45.18696 | 15.77110 | 36970 ft | 472 kts | 142° |
| 2026-05-06 07:00 | 45.13702 | 15.83133 | 36980 ft | 471 kts | 142° |
| 2026-05-06 07:00 | 45.08700 | 15.89150 | 36980 ft | 471 kts | 142° |
| 2026-05-06 07:01 | 45.03703 | 15.95153 | 36988 ft | 471 kts | 142° |
| 2026-05-06 07:01 | 44.98699 | 16.01148 | 36985 ft | 471 kts | 142° |
| 2026-05-06 07:02 | 44.93695 | 16.07127 | 36975 ft | 471 kts | 142° |
| 2026-05-06 07:02 | 44.88684 | 16.13103 | 36986 ft | 472 kts | 142° |
| 2026-05-06 07:03 | 44.83670 | 16.19069 | 36999 ft | 471 kts | 142° |
| 2026-05-06 07:03 | 44.78647 | 16.25028 | 37003 ft | 472 kts | 142° |
| 2026-05-06 07:04 | 44.73618 | 16.30981 | 37001 ft | 473 kts | 142° |
| 2026-05-06 07:04 | 44.68610 | 16.36900 | 36998 ft | 473 kts | 142° |
| 2026-05-06 07:05 | 44.63570 | 16.42841 | 36998 ft | 473 kts | 142° |
| 2026-05-06 07:05 | 44.58531 | 16.48764 | 37000 ft | 472 kts | 142° |
| 2026-05-06 07:06 | 44.53487 | 16.54678 | 36999 ft | 472 kts | 142° |
| 2026-05-06 07:06 | 44.48440 | 16.60584 | 37001 ft | 473 kts | 142° |
| 2026-05-06 07:07 | 44.43396 | 16.66474 | 37010 ft | 472 kts | 142° |
| 2026-05-06 07:07 | 44.38349 | 16.72356 | 37013 ft | 472 kts | 142° |
| 2026-05-06 07:08 | 44.33302 | 16.78218 | 37004 ft | 472 kts | 142° |
| 2026-05-06 07:08 | 44.28250 | 16.84074 | 37010 ft | 472 kts | 142° |
| 2026-05-06 07:09 | 44.23192 | 16.89924 | 37009 ft | 472 kts | 142° |
| 2026-05-06 07:09 | 44.18136 | 16.95759 | 37024 ft | 472 kts | 142° |
| 2026-05-06 07:10 | 44.13058 | 17.01607 | 37016 ft | 473 kts | 142° |
| 2026-05-06 07:10 | 44.08006 | 17.07410 | 37022 ft | 474 kts | 142° |
| 2026-05-06 07:11 | 44.02914 | 17.13246 | 37019 ft | 474 kts | 142° |
| 2026-05-06 07:11 | 43.97819 | 17.19072 | 37029 ft | 474 kts | 142° |
| 2026-05-06 07:12 | 43.92722 | 17.24887 | 37032 ft | 474 kts | 142° |
| 2026-05-06 07:12 | 43.87619 | 17.30694 | 37030 ft | 474 kts | 142° |
| 2026-05-06 07:13 | 43.82516 | 17.36490 | 37040 ft | 474 kts | 142° |
| 2026-05-06 07:13 | 43.77406 | 17.42285 | 37039 ft | 474 kts | 142° |
| 2026-05-06 07:14 | 43.72295 | 17.48060 | 37045 ft | 474 kts | 142° |
| 2026-05-06 07:14 | 43.67191 | 17.53816 | 37055 ft | 474 kts | 142° |
| 2026-05-06 07:15 | 43.62109 | 17.59537 | 37065 ft | 474 kts | 142° |
| 2026-05-06 07:15 | 43.56997 | 17.65280 | 37053 ft | 474 kts | 142° |
| 2026-05-06 07:16 | 43.51679 | 17.70627 | 37060 ft | 473 kts | 147° |
| 2026-05-06 07:16 | 43.46255 | 17.75753 | 37069 ft | 473 kts | 147° |
| 2026-05-06 07:17 | 43.40832 | 17.80880 | 37079 ft | 473 kts | 147° |
| 2026-05-06 07:17 | 43.35408 | 17.86026 | 37075 ft | 474 kts | 147° |
| 2026-05-06 07:18 | 43.29983 | 17.91174 | 37074 ft | 474 kts | 147° |
| 2026-05-06 07:18 | 43.24549 | 17.96318 | 37076 ft | 474 kts | 147° |
| 2026-05-06 07:19 | 43.19114 | 18.01455 | 37073 ft | 475 kts | 147° |
| 2026-05-06 07:19 | 43.13670 | 18.06587 | 37074 ft | 475 kts | 147° |
| 2026-05-06 07:20 | 43.08219 | 18.11712 | 37071 ft | 475 kts | 147° |
| 2026-05-06 07:20 | 43.02767 | 18.16829 | 37077 ft | 476 kts | 147° |
| 2026-05-06 07:21 | 42.97307 | 18.21944 | 37075 ft | 476 kts | 147° |
| 2026-05-06 07:21 | 42.91847 | 18.27042 | 37070 ft | 476 kts | 147° |
| 2026-05-06 07:22 | 42.86411 | 18.32108 | 37083 ft | 476 kts | 147° |
| 2026-05-06 07:22 | 42.80941 | 18.37198 | 37075 ft | 477 kts | 147° |
| 2026-05-06 07:23 | 42.75463 | 18.42282 | 37101 ft | 477 kts | 147° |
| 2026-05-06 07:23 | 42.69982 | 18.47359 | 37078 ft | 477 kts | 147° |
| 2026-05-06 07:24 | 42.64495 | 18.52430 | 37098 ft | 477 kts | 147° |
| 2026-05-06 07:24 | 42.59894 | 18.56675 | 37075 ft | 477 kts | 147° |
| 2026-05-06 07:25 | 42.54439 | 18.61696 | 37083 ft | 477 kts | 147° |
| 2026-05-06 07:25 | 42.48952 | 18.66736 | 37092 ft | 476 kts | 147° |
| 2026-05-06 07:26 | 42.43467 | 18.71761 | 37104 ft | 476 kts | 147° |
| 2026-05-06 07:26 | 42.37979 | 18.76783 | 37103 ft | 477 kts | 147° |
| 2026-05-06 07:27 | 42.32476 | 18.81800 | 37103 ft | 477 kts | 147° |
| 2026-05-06 07:27 | 42.26972 | 18.86814 | 37102 ft | 477 kts | 147° |
| 2026-05-06 07:28 | 42.21470 | 18.91819 | 37101 ft | 477 kts | 147° |
| 2026-05-06 07:28 | 42.13189 | 18.99321 | 37111 ft | 480 kts | 147° |
| 2026-05-06 07:29 | 42.07603 | 19.04370 | 37108 ft | 486 kts | 147° |
| 2026-05-06 07:29 | 42.01965 | 19.09454 | 37111 ft | 489 kts | 147° |
| 2026-05-06 07:30 | 41.96292 | 19.14558 | 37098 ft | 491 kts | 147° |
| 2026-05-06 07:30 | 41.90614 | 19.19662 | 37105 ft | 491 kts | 147° |
| 2026-05-06 07:31 | 41.84937 | 19.24749 | 37094 ft | 489 kts | 147° |
| 2026-05-06 07:31 | 41.79284 | 19.29807 | 37094 ft | 488 kts | 147° |
| 2026-05-06 07:32 | 41.73598 | 19.34726 | 37101 ft | 486 kts | 149° |
| 2026-05-06 07:32 | 41.67801 | 19.39349 | 37100 ft | 484 kts | 150° |
| 2026-05-06 07:33 | 41.62013 | 19.43928 | 37095 ft | 483 kts | 150° |
| 2026-05-06 07:33 | 41.56242 | 19.48541 | 37107 ft | 483 kts | 150° |
| 2026-05-06 07:34 | 41.50484 | 19.53165 | 37102 ft | 483 kts | 150° |
| 2026-05-06 07:34 | 41.44721 | 19.57789 | 37105 ft | 484 kts | 150° |
| 2026-05-06 07:35 | 41.38947 | 19.62411 | 37109 ft | 485 kts | 150° |
| 2026-05-06 07:35 | 41.33198 | 19.66998 | 37096 ft | 485 kts | 150° |
| 2026-05-06 07:36 | 41.27400 | 19.71612 | 37107 ft | 486 kts | 150° |
| 2026-05-06 07:36 | 41.21598 | 19.76224 | 37102 ft | 486 kts | 150° |
| 2026-05-06 07:37 | 41.15787 | 19.80837 | 37103 ft | 486 kts | 150° |
| 2026-05-06 07:37 | 41.09974 | 19.85435 | 37094 ft | 486 kts | 150° |
| 2026-05-06 07:38 | 41.04160 | 19.90025 | 37109 ft | 486 kts | 150° |
| 2026-05-06 07:38 | 40.98346 | 19.94613 | 37111 ft | 486 kts | 150° |
| 2026-05-06 07:39 | 40.92534 | 19.99184 | 37111 ft | 486 kts | 150° |
| 2026-05-06 07:39 | 40.86722 | 20.03744 | 37109 ft | 486 kts | 150° |
| 2026-05-06 07:40 | 40.80899 | 20.08305 | 37113 ft | 487 kts | 150° |
| 2026-05-06 07:40 | 40.75065 | 20.12865 | 37114 ft | 487 kts | 150° |
| 2026-05-06 07:41 | 40.69226 | 20.17420 | 37117 ft | 488 kts | 150° |
| 2026-05-06 07:41 | 40.63376 | 20.21945 | 37120 ft | 487 kts | 152° |
| 2026-05-06 07:42 | 40.57415 | 20.26167 | 37122 ft | 487 kts | 153° |
| 2026-05-06 07:42 | 40.51450 | 20.30273 | 37123 ft | 487 kts | 153° |
| 2026-05-06 07:43 | 40.45453 | 20.34435 | 37121 ft | 487 kts | 153° |
| 2026-05-06 07:43 | 40.39476 | 20.38620 | 37121 ft | 487 kts | 153° |
| 2026-05-06 07:44 | 40.33501 | 20.42807 | 37119 ft | 487 kts | 153° |
| 2026-05-06 07:44 | 40.27527 | 20.46990 | 37117 ft | 486 kts | 153° |
| 2026-05-06 07:45 | 40.21555 | 20.51157 | 37119 ft | 487 kts | 153° |
| 2026-05-06 07:45 | 40.15584 | 20.55310 | 37118 ft | 486 kts | 153° |
| 2026-05-06 07:46 | 40.09620 | 20.59458 | 37118 ft | 486 kts | 153° |
| 2026-05-06 07:46 | 40.03652 | 20.63599 | 37122 ft | 486 kts | 153° |
| 2026-05-06 07:47 | 39.97675 | 20.67732 | 37123 ft | 486 kts | 153° |
| 2026-05-06 07:47 | 39.91694 | 20.71860 | 37134 ft | 486 kts | 153° |
| 2026-05-06 07:48 | 39.85711 | 20.75983 | 37124 ft | 487 kts | 153° |
| 2026-05-06 07:48 | 39.79724 | 20.80099 | 37130 ft | 487 kts | 153° |
| 2026-05-06 07:49 | 39.73729 | 20.84217 | 37133 ft | 488 kts | 153° |
| 2026-05-06 07:49 | 39.67722 | 20.88335 | 37129 ft | 488 kts | 153° |
| 2026-05-06 07:50 | 39.61715 | 20.92440 | 37130 ft | 488 kts | 153° |
| 2026-05-06 07:50 | 39.55702 | 20.96543 | 37132 ft | 489 kts | 153° |
| 2026-05-06 07:51 | 39.49683 | 21.00644 | 37124 ft | 489 kts | 153° |
| 2026-05-06 07:51 | 39.43655 | 21.04741 | 37138 ft | 489 kts | 153° |
| 2026-05-06 07:52 | 39.37626 | 21.08831 | 37128 ft | 490 kts | 153° |
| 2026-05-06 07:52 | 39.31583 | 21.12923 | 37130 ft | 490 kts | 153° |
| 2026-05-06 07:53 | 39.25536 | 21.17014 | 37128 ft | 490 kts | 153° |
| 2026-05-06 07:53 | 39.19496 | 21.21088 | 37127 ft | 489 kts | 153° |
| 2026-05-06 07:54 | 39.13458 | 21.25149 | 37130 ft | 490 kts | 154° |
| 2026-05-06 07:54 | 39.07413 | 21.29206 | 37129 ft | 490 kts | 154° |
| 2026-05-06 07:55 | 39.01371 | 21.33257 | 37123 ft | 490 kts | 153° |
| 2026-05-06 07:55 | 38.95326 | 21.37306 | 37128 ft | 490 kts | 154° |
| 2026-05-06 07:56 | 38.89284 | 21.41344 | 37131 ft | 489 kts | 154° |
| 2026-05-06 07:56 | 38.83244 | 21.45369 | 37118 ft | 489 kts | 154° |
| 2026-05-06 07:57 | 38.77237 | 21.49363 | 37122 ft | 489 kts | 154° |
| 2026-05-06 07:57 | 38.71189 | 21.53379 | 37117 ft | 489 kts | 154° |
| 2026-05-06 07:58 | 38.65145 | 21.57386 | 37122 ft | 490 kts | 154° |
| 2026-05-06 07:58 | 38.59094 | 21.61389 | 37119 ft | 490 kts | 154° |
| 2026-05-06 07:59 | 38.53043 | 21.65385 | 37123 ft | 490 kts | 154° |
| 2026-05-06 07:59 | 38.46982 | 21.69379 | 37122 ft | 490 kts | 154° |
| 2026-05-06 08:00 | 38.40922 | 21.73363 | 37128 ft | 490 kts | 154° |
| 2026-05-06 08:00 | 38.34861 | 21.77342 | 37128 ft | 490 kts | 154° |
| 2026-05-06 08:01 | 38.28803 | 21.81312 | 37133 ft | 490 kts | 154° |
| 2026-05-06 08:01 | 38.22739 | 21.85280 | 37136 ft | 491 kts | 154° |
| 2026-05-06 08:02 | 38.16660 | 21.89246 | 37125 ft | 491 kts | 154° |
| 2026-05-06 08:02 | 38.10578 | 21.93208 | 37121 ft | 491 kts | 154° |
| 2026-05-06 08:03 | 38.04501 | 21.97161 | 37126 ft | 491 kts | 154° |
| 2026-05-06 08:03 | 37.98418 | 22.01111 | 37121 ft | 491 kts | 154° |
| 2026-05-06 08:04 | 37.92337 | 22.05049 | 37110 ft | 491 kts | 154° |
| 2026-05-06 08:04 | 37.86263 | 22.08979 | 37114 ft | 490 kts | 154° |
| 2026-05-06 08:05 | 37.80182 | 22.12906 | 37117 ft | 491 kts | 154° |
| 2026-05-06 08:05 | 37.74132 | 22.16800 | 37111 ft | 491 kts | 154° |
| 2026-05-06 08:06 | 37.68047 | 22.20712 | 37110 ft | 491 kts | 154° |
| 2026-05-06 08:06 | 37.61956 | 22.24626 | 37105 ft | 491 kts | 154° |
| 2026-05-06 08:07 | 37.55868 | 22.28529 | 37109 ft | 491 kts | 154° |
| 2026-05-06 08:07 | 37.49782 | 22.32419 | 37112 ft | 491 kts | 154° |
| 2026-05-06 08:08 | 37.44720 | 22.35650 | 37105 ft | 490 kts | 154° |
| 2026-05-06 08:08 | 37.38639 | 22.39524 | 37104 ft | 490 kts | 154° |
| 2026-05-06 08:09 | 37.32543 | 22.43404 | 37108 ft | 491 kts | 154° |
| 2026-05-06 08:09 | 37.26452 | 22.47272 | 37106 ft | 491 kts | 154° |
| 2026-05-06 08:10 | 37.20355 | 22.51136 | 37110 ft | 491 kts | 154° |
| 2026-05-06 08:10 | 37.14254 | 22.54995 | 37108 ft | 491 kts | 154° |
| 2026-05-06 08:11 | 37.08150 | 22.58852 | 37106 ft | 492 kts | 154° |
| 2026-05-06 08:11 | 37.02041 | 22.62702 | 37106 ft | 491 kts | 154° |
| 2026-05-06 08:12 | 36.95939 | 22.66543 | 37109 ft | 491 kts | 154° |
| 2026-05-06 08:12 | 36.89833 | 22.70380 | 37113 ft | 491 kts | 154° |
| 2026-05-06 08:13 | 36.83732 | 22.74203 | 37113 ft | 491 kts | 154° |
| 2026-05-06 08:13 | 36.77629 | 22.78024 | 37104 ft | 491 kts | 154° |
| 2026-05-06 08:14 | 36.71522 | 22.81842 | 37115 ft | 491 kts | 154° |
| 2026-05-06 08:14 | 36.65413 | 22.85652 | 37117 ft | 491 kts | 154° |
| 2026-05-06 08:15 | 36.59342 | 22.89428 | 37119 ft | 491 kts | 154° |
| 2026-05-06 08:15 | 36.53229 | 22.93226 | 37125 ft | 491 kts | 154° |
| 2026-05-06 08:16 | 36.47075 | 22.97042 | 37136 ft | 491 kts | 154° |
| 2026-05-06 08:16 | 36.40955 | 23.00836 | 37128 ft | 492 kts | 154° |
| 2026-05-06 08:17 | 36.34831 | 23.04621 | 37129 ft | 492 kts | 154° |
| 2026-05-06 08:17 | 36.28694 | 23.08412 | 37128 ft | 492 kts | 154° |
| 2026-05-06 08:18 | 36.22560 | 23.12188 | 37130 ft | 493 kts | 155° |
| 2026-05-06 08:18 | 36.16417 | 23.15965 | 37128 ft | 493 kts | 155° |
| 2026-05-06 08:19 | 36.10310 | 23.19710 | 37130 ft | 493 kts | 155° |
| 2026-05-06 08:19 | 36.04163 | 23.23478 | 37127 ft | 493 kts | 155° |
| 2026-05-06 08:20 | 35.98011 | 23.27241 | 37132 ft | 494 kts | 155° |
| 2026-05-06 08:20 | 35.91855 | 23.31001 | 37127 ft | 494 kts | 155° |
| 2026-05-06 08:21 | 35.85697 | 23.34754 | 37127 ft | 494 kts | 155° |
| 2026-05-06 08:21 | 35.79535 | 23.38505 | 37123 ft | 494 kts | 155° |
| 2026-05-06 08:22 | 35.73370 | 23.42251 | 37121 ft | 494 kts | 155° |
| 2026-05-06 08:22 | 35.67210 | 23.45985 | 37121 ft | 493 kts | 155° |
| 2026-05-06 08:23 | 35.61047 | 23.49713 | 37114 ft | 494 kts | 155° |
| 2026-05-06 08:23 | 35.54885 | 23.53434 | 37107 ft | 494 kts | 155° |
| 2026-05-06 08:24 | 35.48724 | 23.57155 | 37111 ft | 494 kts | 155° |
| 2026-05-06 08:24 | 35.42550 | 23.60875 | 37118 ft | 495 kts | 155° |
| 2026-05-06 08:25 | 35.36367 | 23.64592 | 37104 ft | 495 kts | 155° |
| 2026-05-06 08:25 | 35.30190 | 23.68297 | 37109 ft | 495 kts | 155° |
| 2026-05-06 08:26 | 35.24013 | 23.71998 | 37111 ft | 494 kts | 155° |
| 2026-05-06 08:26 | 35.17886 | 23.75660 | 37111 ft | 493 kts | 155° |
| 2026-05-06 08:27 | 35.11722 | 23.79343 | 37109 ft | 493 kts | 155° |
| 2026-05-06 08:27 | 35.05564 | 23.83013 | 37115 ft | 492 kts | 155° |
| 2026-05-06 08:28 | 34.99402 | 23.86681 | 37112 ft | 492 kts | 155° |
| 2026-05-06 08:28 | 34.93242 | 23.90338 | 37110 ft | 492 kts | 155° |
| 2026-05-06 08:29 | 34.87087 | 23.93989 | 37111 ft | 492 kts | 155° |
| 2026-05-06 08:29 | 34.80930 | 23.97633 | 37110 ft | 492 kts | 155° |
| 2026-05-06 08:30 | 34.74775 | 24.01271 | 37111 ft | 492 kts | 155° |
| 2026-05-06 08:30 | 34.68623 | 24.04902 | 37112 ft | 492 kts | 155° |
| 2026-05-06 08:31 | 34.62464 | 24.08531 | 37110 ft | 492 kts | 155° |
| 2026-05-06 08:31 | 34.56300 | 24.12157 | 37112 ft | 492 kts | 155° |
| 2026-05-06 08:32 | 34.50135 | 24.15777 | 37109 ft | 492 kts | 156° |
| 2026-05-06 08:32 | 34.43974 | 24.19387 | 37114 ft | 492 kts | 155° |
| 2026-05-06 08:33 | 34.37819 | 24.22990 | 37121 ft | 492 kts | 155° |
| 2026-05-06 08:33 | 34.31702 | 24.26566 | 37123 ft | 492 kts | 156° |
| 2026-05-06 08:34 | 34.22454 | 24.31959 | 37124 ft | 492 kts | 156° |
| 2026-05-06 08:35 | 34.16281 | 24.35550 | 37117 ft | 492 kts | 156° |
| 2026-05-06 08:35 | 34.10109 | 24.39137 | 37120 ft | 492 kts | 156° |
| 2026-05-06 08:36 | 34.03935 | 24.42721 | 37123 ft | 492 kts | 155° |
| 2026-05-06 08:36 | 33.98099 | 24.47053 | 37120 ft | 494 kts | 144° |
| 2026-05-06 08:37 | 33.92917 | 24.52489 | 37126 ft | 494 kts | 139° |
| 2026-05-06 08:37 | 33.87826 | 24.58048 | 37124 ft | 494 kts | 139° |
| 2026-05-06 08:38 | 33.82709 | 24.63584 | 37120 ft | 495 kts | 139° |
| 2026-05-06 08:38 | 33.77571 | 24.69099 | 37121 ft | 495 kts | 139° |
| 2026-05-06 08:39 | 33.72422 | 24.74603 | 37123 ft | 495 kts | 139° |
| 2026-05-06 08:39 | 33.67270 | 24.80103 | 37131 ft | 496 kts | 139° |
| 2026-05-06 08:40 | 33.62116 | 24.85599 | 37129 ft | 496 kts | 139° |
| 2026-05-06 08:40 | 33.56991 | 24.91055 | 37129 ft | 496 kts | 139° |
| 2026-05-06 08:41 | 33.51825 | 24.96543 | 37128 ft | 496 kts | 140° |
| 2026-05-06 08:41 | 33.46661 | 25.02021 | 37131 ft | 496 kts | 140° |
| 2026-05-06 08:42 | 33.41484 | 25.07512 | 37131 ft | 497 kts | 140° |
| 2026-05-06 08:42 | 33.36309 | 25.12985 | 37129 ft | 497 kts | 140° |
| 2026-05-06 08:43 | 33.31123 | 25.18457 | 37131 ft | 496 kts | 140° |
| 2026-05-06 08:43 | 33.25945 | 25.23913 | 37136 ft | 496 kts | 140° |
| 2026-05-06 08:44 | 33.20763 | 25.29368 | 37140 ft | 496 kts | 140° |
| 2026-05-06 08:44 | 33.15582 | 25.34812 | 37137 ft | 496 kts | 140° |
| 2026-05-06 08:45 | 33.10395 | 25.40251 | 37138 ft | 496 kts | 140° |
| 2026-05-06 08:45 | 33.05212 | 25.45680 | 37138 ft | 496 kts | 140° |
| 2026-05-06 08:46 | 33.00024 | 25.51102 | 37139 ft | 496 kts | 140° |
| 2026-05-06 08:46 | 32.94866 | 25.56485 | 37140 ft | 496 kts | 140° |
| 2026-05-06 08:47 | 32.89676 | 25.61893 | 37144 ft | 496 kts | 140° |
| 2026-05-06 08:47 | 32.84478 | 25.67301 | 37150 ft | 496 kts | 140° |
| 2026-05-06 08:48 | 32.79279 | 25.72702 | 37148 ft | 496 kts | 140° |
| 2026-05-06 08:48 | 32.74077 | 25.78096 | 37148 ft | 496 kts | 140° |
| 2026-05-06 08:49 | 32.68872 | 25.83486 | 37153 ft | 496 kts | 140° |
| 2026-05-06 08:49 | 32.63668 | 25.88864 | 37156 ft | 496 kts | 140° |
| 2026-05-06 08:50 | 32.58456 | 25.94241 | 37159 ft | 496 kts | 140° |
| 2026-05-06 08:50 | 32.53245 | 25.99609 | 37155 ft | 496 kts | 140° |
| 2026-05-06 08:51 | 32.48039 | 26.04968 | 37159 ft | 496 kts | 140° |
| 2026-05-06 08:51 | 32.42824 | 26.10323 | 37159 ft | 496 kts | 141° |
| 2026-05-06 08:52 | 32.37605 | 26.15674 | 37169 ft | 496 kts | 140° |
| 2026-05-06 08:52 | 32.32381 | 26.21025 | 37175 ft | 497 kts | 141° |
| 2026-05-06 08:53 | 32.27153 | 26.26369 | 37162 ft | 497 kts | 141° |
| 2026-05-06 08:53 | 32.22805 | 26.30806 | 37166 ft | 497 kts | 141° |
| 2026-05-06 08:54 | 32.17574 | 26.36139 | 37165 ft | 497 kts | 141° |
| 2026-05-06 08:54 | 32.12341 | 26.41461 | 37173 ft | 497 kts | 141° |
| 2026-05-06 08:55 | 32.07110 | 26.46779 | 37177 ft | 496 kts | 141° |
| 2026-05-06 08:55 | 32.01879 | 26.52086 | 37174 ft | 496 kts | 141° |
| 2026-05-06 08:56 | 31.96647 | 26.57386 | 37175 ft | 496 kts | 141° |
| 2026-05-06 08:56 | 31.91441 | 26.62648 | 37179 ft | 496 kts | 141° |
| 2026-05-06 08:57 | 31.86203 | 26.67937 | 37175 ft | 496 kts | 141° |
| 2026-05-06 08:57 | 31.80969 | 26.73215 | 37178 ft | 496 kts | 141° |
| 2026-05-06 08:58 | 31.75728 | 26.78491 | 37182 ft | 496 kts | 141° |
| 2026-05-06 08:58 | 31.70487 | 26.83759 | 37175 ft | 496 kts | 141° |
| 2026-05-06 08:59 | 31.65243 | 26.89021 | 37195 ft | 496 kts | 141° |
| 2026-05-06 08:59 | 31.59995 | 26.94278 | 37177 ft | 496 kts | 141° |
| 2026-05-06 09:00 | 31.54745 | 26.99531 | 37175 ft | 496 kts | 141° |
| 2026-05-06 09:00 | 31.49491 | 27.04779 | 37195 ft | 496 kts | 141° |
| 2026-05-06 09:01 | 31.44235 | 27.10024 | 37177 ft | 496 kts | 141° |
| 2026-05-06 09:01 | 31.38975 | 27.15262 | 37182 ft | 496 kts | 141° |
| 2026-05-06 09:02 | 31.33673 | 27.20436 | 37175 ft | 495 kts | 146° |
| 2026-05-06 09:02 | 31.27823 | 27.24608 | 37176 ft | 491 kts | 157° |
| 2026-05-06 09:03 | 31.21611 | 27.27911 | 37181 ft | 491 kts | 158° |
| 2026-05-06 09:03 | 31.15402 | 27.31225 | 37195 ft | 491 kts | 157° |
| 2026-05-06 09:04 | 31.09209 | 27.34580 | 37180 ft | 491 kts | 157° |
| 2026-05-06 09:04 | 31.03020 | 27.37940 | 37176 ft | 491 kts | 157° |
| 2026-05-06 09:05 | 30.96823 | 27.41295 | 37174 ft | 491 kts | 157° |
| 2026-05-06 09:05 | 30.90903 | 27.45303 | 37172 ft | 494 kts | 145° |
| 2026-05-06 09:06 | 30.85561 | 27.50274 | 37172 ft | 495 kts | 143° |
| 2026-05-06 09:06 | 30.80198 | 27.55327 | 37170 ft | 495 kts | 143° |
| 2026-05-06 09:07 | 30.74821 | 27.60339 | 37163 ft | 495 kts | 143° |
| 2026-05-06 09:07 | 30.69432 | 27.65322 | 37160 ft | 495 kts | 143° |
| 2026-05-06 09:08 | 30.64047 | 27.70290 | 37154 ft | 494 kts | 143° |
| 2026-05-06 09:08 | 30.58664 | 27.75250 | 37154 ft | 494 kts | 143° |
| 2026-05-06 09:09 | 30.53279 | 27.80206 | 37149 ft | 494 kts | 143° |
| 2026-05-06 09:09 | 30.47887 | 27.85159 | 37150 ft | 495 kts | 143° |
| 2026-05-06 09:10 | 30.42491 | 27.90116 | 37147 ft | 495 kts | 143° |
| 2026-05-06 09:10 | 30.37093 | 27.95065 | 37143 ft | 495 kts | 143° |
| 2026-05-06 09:11 | 30.31697 | 28.00004 | 37148 ft | 494 kts | 143° |
| 2026-05-06 09:11 | 30.26337 | 28.04903 | 37147 ft | 494 kts | 144° |
| 2026-05-06 09:12 | 30.20940 | 28.09827 | 37147 ft | 494 kts | 144° |
| 2026-05-06 09:12 | 30.15539 | 28.14749 | 37146 ft | 494 kts | 144° |
| 2026-05-06 09:13 | 30.10134 | 28.19667 | 37139 ft | 495 kts | 144° |
| 2026-05-06 09:13 | 30.04724 | 28.24585 | 37149 ft | 495 kts | 144° |
| 2026-05-06 09:14 | 29.99313 | 28.29495 | 37147 ft | 495 kts | 144° |
| 2026-05-06 09:14 | 29.93900 | 28.34403 | 37151 ft | 495 kts | 144° |
| 2026-05-06 09:15 | 29.88506 | 28.39336 | 37146 ft | 496 kts | 141° |
| 2026-05-06 09:15 | 29.83709 | 28.45065 | 37146 ft | 499 kts | 129° |
| 2026-05-06 09:16 | 29.79528 | 28.51435 | 37141 ft | 498 kts | 128° |
| 2026-05-06 09:16 | 29.75365 | 28.57750 | 37139 ft | 498 kts | 129° |
| 2026-05-06 09:17 | 29.71140 | 28.64064 | 37138 ft | 498 kts | 129° |
| 2026-05-06 09:17 | 29.66906 | 28.70365 | 37139 ft | 498 kts | 129° |
| 2026-05-06 09:18 | 29.62671 | 28.76664 | 37138 ft | 498 kts | 129° |
| 2026-05-06 09:18 | 29.58432 | 28.82965 | 37139 ft | 498 kts | 129° |
| 2026-05-06 09:19 | 29.54190 | 28.89264 | 37140 ft | 499 kts | 129° |
| 2026-05-06 09:19 | 29.49936 | 28.95564 | 37138 ft | 499 kts | 129° |
| 2026-05-06 09:20 | 29.45687 | 29.01855 | 37137 ft | 499 kts | 129° |
| 2026-05-06 09:20 | 29.41176 | 29.07868 | 37143 ft | 496 kts | 138° |
| 2026-05-06 09:21 | 29.35880 | 29.12856 | 37139 ft | 492 kts | 146° |
| 2026-05-06 09:21 | 29.30371 | 29.17519 | 37137 ft | 492 kts | 146° |
| 2026-05-06 09:22 | 29.24883 | 29.22226 | 37141 ft | 493 kts | 145° |
| 2026-05-06 09:22 | 29.19402 | 29.26959 | 37140 ft | 494 kts | 145° |
| 2026-05-06 09:23 | 29.13919 | 29.31690 | 37139 ft | 494 kts | 145° |
| 2026-05-06 09:23 | 29.08406 | 29.36375 | 37139 ft | 493 kts | 146° |
| 2026-05-06 09:24 | 29.02848 | 29.40978 | 37139 ft | 493 kts | 147° |
| 2026-05-06 09:24 | 28.97284 | 29.45577 | 37137 ft | 493 kts | 146° |
| 2026-05-06 09:25 | 28.91728 | 29.50178 | 37140 ft | 493 kts | 146° |
| 2026-05-06 09:25 | 28.86178 | 29.54779 | 37148 ft | 493 kts | 146° |
| 2026-05-06 09:26 | 28.80628 | 29.59373 | 37147 ft | 493 kts | 147° |
| 2026-05-06 09:26 | 28.75075 | 29.63964 | 37149 ft | 493 kts | 147° |
| 2026-05-06 09:27 | 28.69518 | 29.68553 | 37149 ft | 493 kts | 147° |
| 2026-05-06 09:27 | 28.63994 | 29.73106 | 37147 ft | 494 kts | 147° |
| 2026-05-06 09:28 | 28.58431 | 29.77686 | 37149 ft | 494 kts | 147° |
| 2026-05-06 09:28 | 28.52865 | 29.82263 | 37146 ft | 494 kts | 147° |
| 2026-05-06 09:29 | 28.47305 | 29.86829 | 37151 ft | 493 kts | 147° |
| 2026-05-06 09:29 | 28.41743 | 29.91389 | 37158 ft | 493 kts | 147° |
| 2026-05-06 09:30 | 28.36180 | 29.95945 | 37161 ft | 493 kts | 147° |
| 2026-05-06 09:30 | 28.30612 | 30.00501 | 37159 ft | 493 kts | 147° |
| 2026-05-06 09:31 | 28.25037 | 30.05053 | 37158 ft | 494 kts | 147° |
| 2026-05-06 09:31 | 28.19462 | 30.09600 | 37156 ft | 494 kts | 147° |
| 2026-05-06 09:32 | 28.13879 | 30.14150 | 37161 ft | 494 kts | 147° |
| 2026-05-06 09:32 | 28.08294 | 30.18689 | 37167 ft | 494 kts | 147° |
| 2026-05-06 09:33 | 28.02712 | 30.23228 | 37169 ft | 494 kts | 147° |
| 2026-05-06 09:33 | 27.97166 | 30.27729 | 37166 ft | 494 kts | 147° |
| 2026-05-06 09:34 | 27.91581 | 30.32253 | 37168 ft | 493 kts | 147° |
| 2026-05-06 09:34 | 27.86006 | 30.36767 | 37168 ft | 493 kts | 147° |
| 2026-05-06 09:35 | 27.80430 | 30.41275 | 37174 ft | 493 kts | 147° |
| 2026-05-06 09:35 | 27.74845 | 30.45783 | 37177 ft | 493 kts | 147° |
| 2026-05-06 09:36 | 27.69266 | 30.50284 | 37178 ft | 492 kts | 147° |
| 2026-05-06 09:36 | 27.63692 | 30.54771 | 37183 ft | 492 kts | 147° |
| 2026-05-06 09:37 | 27.58110 | 30.59256 | 37175 ft | 492 kts | 147° |
| 2026-05-06 09:37 | 27.52533 | 30.63736 | 37183 ft | 493 kts | 147° |
| 2026-05-06 09:38 | 27.46951 | 30.68215 | 37196 ft | 492 kts | 147° |
| 2026-05-06 09:38 | 27.41367 | 30.72688 | 37183 ft | 493 kts | 147° |
| 2026-05-06 09:39 | 27.35820 | 30.77127 | 37179 ft | 492 kts | 147° |
| 2026-05-06 09:39 | 27.30231 | 30.81593 | 37180 ft | 492 kts | 147° |
| 2026-05-06 09:40 | 27.24643 | 30.86053 | 37179 ft | 492 kts | 147° |
| 2026-05-06 09:40 | 27.16267 | 30.92729 | 37179 ft | 492 kts | 148° |
| 2026-05-06 09:41 | 27.11627 | 30.96424 | 37196 ft | 492 kts | 148° |
| 2026-05-06 09:41 | 27.06052 | 31.00867 | 37182 ft | 492 kts | 146° |
| 2026-05-06 09:42 | 27.00958 | 31.06035 | 37177 ft | 496 kts | 134° |
| 2026-05-06 09:42 | 26.96590 | 31.12042 | 37195 ft | 497 kts | 131° |
| 2026-05-06 09:43 | 26.92264 | 31.18096 | 37176 ft | 498 kts | 131° |
| 2026-05-06 09:43 | 26.87907 | 31.24129 | 37175 ft | 497 kts | 131° |
| 2026-05-06 09:44 | 26.83533 | 31.30145 | 37159 ft | 498 kts | 132° |
| 2026-05-06 09:44 | 26.79148 | 31.36157 | 37151 ft | 499 kts | 132° |
| 2026-05-06 09:45 | 26.74753 | 31.42176 | 37130 ft | 500 kts | 132° |
| 2026-05-06 09:45 | 26.70390 | 31.48148 | 37112 ft | 500 kts | 132° |
| 2026-05-06 09:46 | 26.65982 | 31.54173 | 37077 ft | 500 kts | 132° |
| 2026-05-06 09:46 | 26.61580 | 31.60185 | 37065 ft | 500 kts | 132° |
| 2026-05-06 09:47 | 26.57171 | 31.66191 | 37054 ft | 499 kts | 132° |
| 2026-05-06 09:47 | 26.52765 | 31.72185 | 37033 ft | 499 kts | 132° |
| 2026-05-06 09:48 | 26.48386 | 31.78140 | 37024 ft | 499 kts | 132° |
| 2026-05-06 09:48 | 26.43982 | 31.84120 | 37030 ft | 499 kts | 132° |
| 2026-05-06 09:49 | 26.39574 | 31.90094 | 37025 ft | 499 kts | 132° |
| 2026-05-06 09:49 | 26.35170 | 31.96062 | 37027 ft | 498 kts | 132° |
| 2026-05-06 09:50 | 26.30759 | 32.02031 | 37025 ft | 499 kts | 132° |
| 2026-05-06 09:50 | 26.26341 | 32.07994 | 37019 ft | 499 kts | 133° |
| 2026-05-06 09:51 | 26.21919 | 32.13953 | 37017 ft | 499 kts | 132° |
| 2026-05-06 09:51 | 26.17496 | 32.19913 | 37023 ft | 500 kts | 132° |
| 2026-05-06 09:52 | 26.13064 | 32.25874 | 37016 ft | 500 kts | 133° |
| 2026-05-06 09:52 | 26.08634 | 32.31829 | 37018 ft | 500 kts | 133° |
| 2026-05-06 09:53 | 26.04199 | 32.37779 | 37024 ft | 499 kts | 133° |
| 2026-05-06 09:53 | 25.99760 | 32.43724 | 37019 ft | 500 kts | 133° |
| 2026-05-06 09:54 | 25.95347 | 32.49628 | 37020 ft | 500 kts | 133° |
| 2026-05-06 09:54 | 25.90904 | 32.55568 | 37017 ft | 500 kts | 133° |
| 2026-05-06 09:55 | 25.86455 | 32.61507 | 37018 ft | 500 kts | 133° |
| 2026-05-06 09:55 | 25.82007 | 32.67436 | 37016 ft | 499 kts | 133° |
| 2026-05-06 09:56 | 25.77569 | 32.73349 | 37018 ft | 498 kts | 133° |
| 2026-05-06 09:56 | 25.73295 | 32.79418 | 37018 ft | 501 kts | 127° |
| 2026-05-06 09:57 | 25.69477 | 32.85884 | 37015 ft | 502 kts | 126° |
| 2026-05-06 09:57 | 25.65669 | 32.92364 | 37024 ft | 501 kts | 127° |
| 2026-05-06 09:58 | 25.61830 | 32.98818 | 37022 ft | 501 kts | 127° |
| 2026-05-06 09:58 | 25.58001 | 33.05219 | 37016 ft | 501 kts | 127° |
| 2026-05-06 09:59 | 25.54136 | 33.11667 | 37259 ft | 503 kts | 127° |
| 2026-05-06 09:59 | 25.52204 | 33.14890 | 37523 ft | 502 kts | 127° |
| 2026-05-06 09:59 | 25.50278 | 33.18102 | 37776 ft | 500 kts | 127° |
| 2026-05-06 10:00 | 25.48353 | 33.21310 | 38018 ft | 500 kts | 127° |
| 2026-05-06 10:00 | 25.46427 | 33.24516 | 38198 ft | 500 kts | 127° |
| 2026-05-06 10:00 | 25.44499 | 33.27724 | 38357 ft | 501 kts | 127° |
| 2026-05-06 10:00 | 25.42567 | 33.30936 | 38557 ft | 501 kts | 128° |
| 2026-05-06 10:01 | 25.40639 | 33.34138 | 38794 ft | 500 kts | 128° |
| 2026-05-06 10:01 | 25.38708 | 33.37345 | 38917 ft | 501 kts | 128° |
| 2026-05-06 10:01 | 25.34831 | 33.43777 | 39010 ft | 504 kts | 128° |
| 2026-05-06 10:02 | 25.30940 | 33.50225 | 39029 ft | 503 kts | 128° |
| 2026-05-06 10:02 | 25.27047 | 33.56654 | 39027 ft | 503 kts | 128° |
| 2026-05-06 10:03 | 25.23159 | 33.63066 | 39015 ft | 502 kts | 128° |
| 2026-05-06 10:03 | 25.19271 | 33.69470 | 39011 ft | 501 kts | 128° |
| 2026-05-06 10:04 | 25.15390 | 33.75857 | 39009 ft | 501 kts | 128° |
| 2026-05-06 10:04 | 25.11515 | 33.82235 | 39013 ft | 500 kts | 128° |
| 2026-05-06 10:05 | 25.07636 | 33.88605 | 39029 ft | 500 kts | 128° |
| 2026-05-06 10:05 | 25.03754 | 33.94964 | 39026 ft | 500 kts | 128° |
| 2026-05-06 10:06 | 24.99870 | 34.01323 | 39007 ft | 500 kts | 128° |
| 2026-05-06 10:06 | 24.95985 | 34.07684 | 39010 ft | 500 kts | 129° |
| 2026-05-06 10:07 | 24.92092 | 34.14033 | 39009 ft | 500 kts | 129° |
| 2026-05-06 10:07 | 24.88221 | 34.20343 | 39028 ft | 500 kts | 129° |
| 2026-05-06 10:08 | 24.84322 | 34.26695 | 39029 ft | 501 kts | 129° |
| 2026-05-06 10:08 | 24.80416 | 34.33047 | 39013 ft | 501 kts | 129° |
| 2026-05-06 10:09 | 24.76501 | 34.39404 | 39014 ft | 502 kts | 129° |
| 2026-05-06 10:09 | 24.72581 | 34.45764 | 39008 ft | 503 kts | 129° |
| 2026-05-06 10:10 | 24.68656 | 34.52128 | 39008 ft | 503 kts | 129° |
| 2026-05-06 10:10 | 24.64725 | 34.58492 | 39007 ft | 503 kts | 129° |
| 2026-05-06 10:11 | 24.60792 | 34.64839 | 39003 ft | 502 kts | 129° |
| 2026-05-06 10:11 | 24.56857 | 34.71189 | 39006 ft | 503 kts | 129° |
| 2026-05-06 10:12 | 24.52923 | 34.77536 | 39000 ft | 503 kts | 129° |
| 2026-05-06 10:12 | 24.48981 | 34.83880 | 38986 ft | 503 kts | 129° |
| 2026-05-06 10:13 | 24.45037 | 34.90219 | 38991 ft | 503 kts | 129° |
| 2026-05-06 10:13 | 24.41093 | 34.96554 | 38995 ft | 503 kts | 129° |
| 2026-05-06 10:14 | 24.37142 | 35.02886 | 38986 ft | 503 kts | 129° |
| 2026-05-06 10:14 | 24.33188 | 35.09217 | 38984 ft | 503 kts | 129° |
| 2026-05-06 10:15 | 24.29232 | 35.15544 | 38982 ft | 503 kts | 129° |
| 2026-05-06 10:15 | 24.25273 | 35.21867 | 38979 ft | 503 kts | 129° |
| 2026-05-06 10:16 | 24.21314 | 35.28184 | 38973 ft | 503 kts | 129° |
| 2026-05-06 10:16 | 24.17348 | 35.34500 | 38965 ft | 503 kts | 129° |
| 2026-05-06 10:17 | 24.13407 | 35.40776 | 38967 ft | 504 kts | 129° |
| 2026-05-06 10:17 | 24.09433 | 35.47090 | 38974 ft | 503 kts | 129° |
| 2026-05-06 10:18 | 24.05460 | 35.53392 | 38983 ft | 503 kts | 129° |
| 2026-05-06 10:18 | 24.01491 | 35.59689 | 38979 ft | 503 kts | 129° |
| 2026-05-06 10:19 | 23.97515 | 35.65983 | 38976 ft | 503 kts | 129° |
| 2026-05-06 10:19 | 23.93532 | 35.72276 | 38968 ft | 504 kts | 129° |
| 2026-05-06 10:20 | 23.89543 | 35.78576 | 38962 ft | 504 kts | 129° |
| 2026-05-06 10:20 | 23.85556 | 35.84869 | 38962 ft | 504 kts | 129° |
| 2026-05-06 10:21 | 23.81561 | 35.91163 | 38964 ft | 504 kts | 129° |
| 2026-05-06 10:21 | 23.77559 | 35.97463 | 38954 ft | 505 kts | 129° |
| 2026-05-06 10:22 | 23.73551 | 36.03764 | 38907 ft | 506 kts | 129° |
| 2026-05-06 10:22 | 23.69535 | 36.10068 | 38901 ft | 505 kts | 129° |
| 2026-05-06 10:23 | 23.65549 | 36.16321 | 38897 ft | 505 kts | 129° |
| 2026-05-06 10:23 | 23.61535 | 36.22610 | 38887 ft | 504 kts | 129° |
| 2026-05-06 10:24 | 23.57527 | 36.28878 | 38887 ft | 503 kts | 130° |
| 2026-05-06 10:24 | 23.53521 | 36.35134 | 38878 ft | 503 kts | 130° |
| 2026-05-06 10:25 | 23.49520 | 36.41381 | 38881 ft | 503 kts | 129° |
| 2026-05-06 10:25 | 23.45515 | 36.47622 | 38873 ft | 502 kts | 130° |
| 2026-05-06 10:26 | 23.41504 | 36.53860 | 38856 ft | 503 kts | 129° |
| 2026-05-06 10:26 | 23.37499 | 36.60092 | 38849 ft | 502 kts | 129° |
| 2026-05-06 10:27 | 23.33516 | 36.66278 | 38853 ft | 502 kts | 130° |
| 2026-05-06 10:27 | 23.29505 | 36.72496 | 38851 ft | 502 kts | 129° |
| 2026-05-06 10:28 | 23.25489 | 36.78717 | 38848 ft | 502 kts | 130° |
| 2026-05-06 10:28 | 23.21475 | 36.84927 | 38842 ft | 502 kts | 130° |
| 2026-05-06 10:29 | 23.17460 | 36.91132 | 38844 ft | 502 kts | 130° |
| 2026-05-06 10:29 | 23.13448 | 36.97325 | 38842 ft | 501 kts | 129° |
| 2026-05-06 10:30 | 23.10082 | 37.02515 | 38844 ft | 501 kts | 130° |
| 2026-05-06 10:30 | 23.06064 | 37.08706 | 38842 ft | 501 kts | 130° |
| 2026-05-06 10:31 | 23.02073 | 37.14847 | 38843 ft | 501 kts | 130° |
| 2026-05-06 10:31 | 22.98029 | 37.21013 | 38843 ft | 501 kts | 130° |
| 2026-05-06 10:32 | 22.93976 | 37.27172 | 38843 ft | 502 kts | 130° |
| 2026-05-06 10:32 | 22.89916 | 37.33337 | 38843 ft | 502 kts | 130° |
| 2026-05-06 10:33 | 22.85860 | 37.39494 | 38844 ft | 502 kts | 130° |
| 2026-05-06 10:33 | 22.81799 | 37.45656 | 38841 ft | 502 kts | 130° |
| 2026-05-06 10:34 | 22.77737 | 37.51811 | 38843 ft | 502 kts | 130° |
| 2026-05-06 10:34 | 22.73677 | 37.57962 | 38842 ft | 502 kts | 130° |
| 2026-05-06 10:35 | 22.69629 | 37.64129 | 38843 ft | 502 kts | 129° |
| 2026-05-06 10:35 | 22.65614 | 37.70260 | 38842 ft | 502 kts | 129° |
| 2026-05-06 10:36 | 22.61576 | 37.76421 | 38844 ft | 501 kts | 129° |
| 2026-05-06 10:36 | 22.57539 | 37.82573 | 38843 ft | 502 kts | 129° |
| 2026-05-06 10:37 | 22.53501 | 37.88719 | 38843 ft | 501 kts | 129° |
| 2026-05-06 10:37 | 22.49461 | 37.94858 | 38841 ft | 501 kts | 130° |
| 2026-05-06 10:38 | 22.45421 | 38.00989 | 38842 ft | 500 kts | 129° |
| 2026-05-06 10:38 | 22.41385 | 38.07114 | 38843 ft | 500 kts | 129° |
| 2026-05-06 10:39 | 22.37346 | 38.13232 | 38846 ft | 500 kts | 129° |
| 2026-05-06 10:39 | 22.33310 | 38.19341 | 38857 ft | 499 kts | 129° |
| 2026-05-06 10:40 | 22.29275 | 38.25440 | 38862 ft | 499 kts | 130° |
| 2026-05-06 10:40 | 22.25229 | 38.31533 | 38862 ft | 499 kts | 130° |
| 2026-05-06 10:41 | 22.21176 | 38.37628 | 38862 ft | 500 kts | 130° |
| 2026-05-06 10:41 | 22.17124 | 38.43721 | 38862 ft | 500 kts | 130° |
| 2026-05-06 10:42 | 22.13094 | 38.49774 | 38860 ft | 500 kts | 130° |
| 2026-05-06 10:42 | 22.09034 | 38.55859 | 38862 ft | 500 kts | 130° |
| 2026-05-06 10:43 | 22.04973 | 38.61948 | 38863 ft | 500 kts | 130° |
| 2026-05-06 10:44 | 21.98877 | 38.71072 | 38858 ft | 500 kts | 130° |
| 2026-05-06 10:44 | 21.94812 | 38.77144 | 38863 ft | 499 kts | 129° |
| 2026-05-06 10:45 | 21.90749 | 38.83210 | 38860 ft | 499 kts | 129° |
| 2026-05-06 10:45 | 21.86687 | 38.89263 | 38861 ft | 498 kts | 129° |
| 2026-05-06 10:46 | 21.82635 | 38.95303 | 38859 ft | 497 kts | 129° |
| 2026-05-06 10:46 | 21.78585 | 39.01328 | 38860 ft | 497 kts | 129° |
| 2026-05-06 10:47 | 21.74522 | 39.07325 | 38853 ft | 492 kts | 133° |
| 2026-05-06 10:47 | 21.72071 | 39.09823 | 38853 ft | 482 kts | 150° |
| 2026-05-06 10:47 | 21.69116 | 39.11417 | 38871 ft | 473 kts | 165° |
| 2026-05-06 10:47 | 21.65940 | 39.12225 | 38855 ft | 467 kts | 178° |
| 2026-05-06 10:48 | 21.62720 | 39.12275 | 38872 ft | 461 kts | 185° |
| 2026-05-06 10:48 | 21.56271 | 39.12008 | 38863 ft | 465 kts | 185° |
| 2026-05-06 10:49 | 21.49822 | 39.11774 | 38873 ft | 469 kts | 185° |
| 2026-05-06 10:49 | 21.43232 | 39.11589 | 38864 ft | 472 kts | 184° |
| 2026-05-06 10:50 | 21.36698 | 39.11428 | 38861 ft | 473 kts | 184° |
| 2026-05-06 10:50 | 21.30114 | 39.11270 | 38863 ft | 473 kts | 184° |
| 2026-05-06 10:51 | 21.23531 | 39.11106 | 38859 ft | 472 kts | 184° |
| 2026-05-06 10:51 | 21.16967 | 39.10942 | 38871 ft | 471 kts | 184° |
| 2026-05-06 10:52 | 21.10419 | 39.10779 | 38872 ft | 470 kts | 184° |
| 2026-05-06 10:52 | 21.03881 | 39.10617 | 38868 ft | 469 kts | 184° |
| 2026-05-06 10:53 | 20.97359 | 39.10456 | 38872 ft | 469 kts | 184° |
| 2026-05-06 10:53 | 20.90842 | 39.10294 | 38879 ft | 468 kts | 184° |
| 2026-05-06 10:54 | 20.84325 | 39.10131 | 38881 ft | 468 kts | 184° |
| 2026-05-06 10:54 | 20.77806 | 39.09970 | 38885 ft | 468 kts | 184° |
| 2026-05-06 10:55 | 20.71289 | 39.09810 | 38890 ft | 469 kts | 184° |
| 2026-05-06 10:55 | 20.64768 | 39.09644 | 38893 ft | 469 kts | 184° |
| 2026-05-06 10:56 | 20.58242 | 39.09477 | 38900 ft | 469 kts | 184° |
| 2026-05-06 10:56 | 20.51700 | 39.09310 | 38900 ft | 470 kts | 184° |
| 2026-05-06 10:57 | 20.45155 | 39.09145 | 38907 ft | 471 kts | 184° |
| 2026-05-06 10:57 | 20.38600 | 39.08979 | 38913 ft | 472 kts | 184° |
| 2026-05-06 10:58 | 20.32027 | 39.08810 | 38919 ft | 472 kts | 184° |
| 2026-05-06 10:58 | 20.25454 | 39.08642 | 38900 ft | 473 kts | 184° |
| 2026-05-06 10:59 | 20.18862 | 39.08476 | 38884 ft | 474 kts | 184° |
| 2026-05-06 10:59 | 20.12272 | 39.08308 | 38877 ft | 474 kts | 184° |
| 2026-05-06 11:00 | 20.05690 | 39.08140 | 38889 ft | 473 kts | 184° |
| 2026-05-06 11:00 | 19.99161 | 39.07979 | 38890 ft | 472 kts | 184° |
| 2026-05-06 11:01 | 19.92593 | 39.07811 | 38918 ft | 472 kts | 183° |
| 2026-05-06 11:01 | 19.85981 | 39.07644 | 38931 ft | 472 kts | 183° |
| 2026-05-06 11:02 | 19.79451 | 39.07478 | 38936 ft | 472 kts | 183° |
| 2026-05-06 11:02 | 19.72874 | 39.07313 | 38940 ft | 473 kts | 183° |
| 2026-05-06 11:03 | 19.66288 | 39.07148 | 38945 ft | 473 kts | 183° |
| 2026-05-06 11:03 | 19.59693 | 39.06981 | 38949 ft | 474 kts | 183° |
| 2026-05-06 11:04 | 19.53100 | 39.06815 | 38953 ft | 474 kts | 183° |
| 2026-05-06 11:04 | 19.46504 | 39.06650 | 38959 ft | 474 kts | 183° |
| 2026-05-06 11:05 | 19.39908 | 39.06485 | 38965 ft | 474 kts | 183° |
| 2026-05-06 11:05 | 19.33304 | 39.06319 | 38972 ft | 474 kts | 183° |
| 2026-05-06 11:06 | 19.26701 | 39.06154 | 38978 ft | 475 kts | 183° |
| 2026-05-06 11:06 | 19.20097 | 39.05988 | 38984 ft | 475 kts | 183° |
| 2026-05-06 11:07 | 19.13489 | 39.05822 | 38986 ft | 475 kts | 183° |
| 2026-05-06 11:07 | 19.06890 | 39.05548 | 38993 ft | 474 kts | 185° |
| 2026-05-06 11:08 | 19.00299 | 39.05151 | 38989 ft | 475 kts | 185° |
| 2026-05-06 11:08 | 18.93707 | 39.04756 | 38990 ft | 474 kts | 185° |
| 2026-05-06 11:09 | 18.87110 | 39.04380 | 38988 ft | 475 kts | 185° |
| 2026-05-06 11:09 | 18.80515 | 39.04016 | 39008 ft | 475 kts | 185° |
| 2026-05-06 11:10 | 18.73919 | 39.03654 | 39011 ft | 475 kts | 185° |
| 2026-05-06 11:10 | 18.67318 | 39.03289 | 39005 ft | 475 kts | 185° |
| 2026-05-06 11:11 | 18.60759 | 39.02924 | 39015 ft | 475 kts | 185° |
| 2026-05-06 11:11 | 18.54158 | 39.02559 | 39029 ft | 475 kts | 185° |
| 2026-05-06 11:12 | 18.47553 | 39.02195 | 39088 ft | 474 kts | 185° |
| 2026-05-06 11:12 | 18.40970 | 39.01832 | 39142 ft | 474 kts | 185° |
| 2026-05-06 11:13 | 18.34373 | 39.01467 | 39146 ft | 475 kts | 185° |
| 2026-05-06 11:13 | 18.27769 | 39.01104 | 39146 ft | 475 kts | 185° |
| 2026-05-06 11:14 | 18.21151 | 39.00740 | 39144 ft | 476 kts | 185° |
| 2026-05-06 11:14 | 18.14523 | 39.00388 | 39060 ft | 478 kts | 184° |
| 2026-05-06 11:15 | 18.07867 | 39.00143 | 38991 ft | 479 kts | 184° |
| 2026-05-06 11:15 | 18.01211 | 38.99922 | 38981 ft | 478 kts | 184° |
| 2026-05-06 11:16 | 17.95687 | 38.99729 | 38982 ft | 477 kts | 184° |
| 2026-05-06 11:16 | 17.89049 | 38.99488 | 38980 ft | 477 kts | 184° |
| 2026-05-06 11:17 | 17.82417 | 38.99244 | 38981 ft | 477 kts | 184° |
| 2026-05-06 11:17 | 17.75792 | 38.99003 | 38979 ft | 477 kts | 184° |
| 2026-05-06 11:18 | 17.69161 | 38.98763 | 38982 ft | 477 kts | 184° |
| 2026-05-06 11:18 | 17.62537 | 38.98519 | 39039 ft | 476 kts | 184° |
| 2026-05-06 11:19 | 17.55919 | 38.98280 | 39036 ft | 476 kts | 184° |
| 2026-05-06 11:19 | 17.49292 | 38.98040 | 39036 ft | 476 kts | 184° |
| 2026-05-06 11:20 | 17.42665 | 38.97799 | 39037 ft | 477 kts | 184° |
| 2026-05-06 11:20 | 17.36074 | 38.97562 | 39037 ft | 477 kts | 184° |
| 2026-05-06 11:21 | 17.29390 | 38.97317 | 39039 ft | 477 kts | 184° |
| 2026-05-06 11:21 | 17.22742 | 38.97076 | 39031 ft | 478 kts | 184° |
| 2026-05-06 11:22 | 17.16092 | 38.96837 | 39026 ft | 478 kts | 184° |
| 2026-05-06 11:22 | 17.09438 | 38.96593 | 39029 ft | 479 kts | 184° |
| 2026-05-06 11:23 | 17.02817 | 38.96353 | 39027 ft | 479 kts | 184° |
| 2026-05-06 11:23 | 16.96154 | 38.96112 | 39028 ft | 479 kts | 184° |
| 2026-05-06 11:24 | 16.89486 | 38.95872 | 39029 ft | 479 kts | 184° |
| 2026-05-06 11:24 | 16.82820 | 38.95631 | 38981 ft | 480 kts | 184° |
| 2026-05-06 11:25 | 16.76135 | 38.95390 | 38889 ft | 481 kts | 184° |
| 2026-05-06 11:25 | 16.69435 | 38.95147 | 38877 ft | 481 kts | 183° |
| 2026-05-06 11:26 | 16.62755 | 38.94907 | 38874 ft | 480 kts | 184° |
| 2026-05-06 11:26 | 16.56088 | 38.94667 | 38879 ft | 479 kts | 183° |
| 2026-05-06 11:27 | 16.49439 | 38.94431 | 38878 ft | 478 kts | 184° |
| 2026-05-06 11:27 | 16.42841 | 38.94192 | 38882 ft | 478 kts | 183° |
| 2026-05-06 11:28 | 16.36193 | 38.93955 | 38875 ft | 478 kts | 183° |
| 2026-05-06 11:28 | 16.29547 | 38.93715 | 38867 ft | 478 kts | 184° |
| 2026-05-06 11:29 | 16.22901 | 38.93476 | 38876 ft | 478 kts | 183° |
| 2026-05-06 11:29 | 16.16256 | 38.93237 | 38879 ft | 478 kts | 183° |
| 2026-05-06 11:30 | 16.09599 | 38.92999 | 38879 ft | 479 kts | 183° |
| 2026-05-06 11:30 | 16.02934 | 38.92759 | 38881 ft | 479 kts | 184° |
| 2026-05-06 11:31 | 15.96264 | 38.92519 | 38876 ft | 480 kts | 183° |
| 2026-05-06 11:31 | 15.89585 | 38.92279 | 38881 ft | 480 kts | 183° |
| 2026-05-06 11:32 | 15.82897 | 38.92043 | 38882 ft | 481 kts | 183° |
| 2026-05-06 11:32 | 15.76204 | 38.91805 | 38889 ft | 481 kts | 183° |
| 2026-05-06 11:33 | 15.69504 | 38.91565 | 38888 ft | 482 kts | 183° |
| 2026-05-06 11:33 | 15.62852 | 38.91325 | 38888 ft | 481 kts | 183° |
| 2026-05-06 11:34 | 15.56158 | 38.91089 | 38885 ft | 481 kts | 183° |
| 2026-05-06 11:34 | 15.49468 | 38.90851 | 38892 ft | 481 kts | 183° |
| 2026-05-06 11:35 | 15.42779 | 38.90612 | 38899 ft | 481 kts | 183° |
| 2026-05-06 11:35 | 15.36090 | 38.90374 | 38898 ft | 481 kts | 183° |
| 2026-05-06 11:36 | 15.29397 | 38.90135 | 38895 ft | 481 kts | 183° |
| 2026-05-06 11:36 | 15.22696 | 38.90017 | 38902 ft | 482 kts | 181° |
| 2026-05-06 11:37 | 15.15992 | 38.90048 | 38899 ft | 482 kts | 181° |
| 2026-05-06 11:37 | 15.09291 | 38.90070 | 38911 ft | 482 kts | 181° |
| 2026-05-06 11:38 | 15.02584 | 38.90070 | 38910 ft | 482 kts | 181° |
| 2026-05-06 11:38 | 14.95872 | 38.90060 | 38912 ft | 482 kts | 181° |
| 2026-05-06 11:39 | 14.89158 | 38.90050 | 38905 ft | 483 kts | 181° |
| 2026-05-06 11:39 | 14.82433 | 38.90041 | 38913 ft | 483 kts | 181° |
| 2026-05-06 11:40 | 14.75712 | 38.90033 | 38913 ft | 483 kts | 181° |
| 2026-05-06 11:40 | 14.69030 | 38.90025 | 38916 ft | 483 kts | 181° |
| 2026-05-06 11:41 | 14.62309 | 38.90016 | 38930 ft | 483 kts | 181° |
| 2026-05-06 11:41 | 14.55585 | 38.90007 | 38918 ft | 483 kts | 181° |
| 2026-05-06 11:42 | 14.48861 | 38.89998 | 38925 ft | 483 kts | 181° |
| 2026-05-06 11:42 | 14.42143 | 38.89933 | 38935 ft | 483 kts | 181° |
| 2026-05-06 11:43 | 14.35421 | 38.89845 | 38938 ft | 483 kts | 181° |
| 2026-05-06 11:43 | 14.28693 | 38.89767 | 38935 ft | 483 kts | 181° |
| 2026-05-06 11:44 | 14.18594 | 38.89657 | 38943 ft | 484 kts | 181° |
| 2026-05-06 11:44 | 14.11864 | 38.89585 | 38945 ft | 483 kts | 181° |
| 2026-05-06 11:45 | 14.05135 | 38.89512 | 38944 ft | 484 kts | 181° |
| 2026-05-06 11:45 | 13.98404 | 38.89416 | 38948 ft | 483 kts | 182° |
| 2026-05-06 11:46 | 13.91680 | 38.89287 | 38954 ft | 483 kts | 182° |
| 2026-05-06 11:46 | 13.84961 | 38.89157 | 38960 ft | 483 kts | 182° |
| 2026-05-06 11:47 | 13.78233 | 38.89035 | 38965 ft | 484 kts | 182° |
| 2026-05-06 11:47 | 13.71500 | 38.88913 | 38966 ft | 484 kts | 182° |
| 2026-05-06 11:48 | 13.64763 | 38.88792 | 38973 ft | 484 kts | 182° |
| 2026-05-06 11:48 | 13.58029 | 38.88670 | 38973 ft | 484 kts | 182° |
| 2026-05-06 11:49 | 13.51344 | 38.88549 | 38981 ft | 484 kts | 182° |
| 2026-05-06 11:49 | 13.44606 | 38.88429 | 38980 ft | 484 kts | 182° |
| 2026-05-06 11:50 | 13.37869 | 38.88309 | 38988 ft | 484 kts | 182° |
| 2026-05-06 11:50 | 13.31140 | 38.88187 | 38996 ft | 484 kts | 181° |
| 2026-05-06 11:51 | 13.24408 | 38.88067 | 39000 ft | 484 kts | 181° |
| 2026-05-06 11:51 | 13.17672 | 38.87948 | 38995 ft | 484 kts | 181° |
| 2026-05-06 11:52 | 13.10943 | 38.87825 | 39005 ft | 484 kts | 181° |
| 2026-05-06 11:52 | 13.04216 | 38.87704 | 39019 ft | 484 kts | 181° |
| 2026-05-06 11:53 | 12.97484 | 38.87582 | 39008 ft | 484 kts | 181° |
| 2026-05-06 11:53 | 12.90757 | 38.87459 | 39023 ft | 484 kts | 182° |
| 2026-05-06 11:54 | 12.84027 | 38.87278 | 39030 ft | 484 kts | 182° |
| 2026-05-06 11:54 | 12.78431 | 38.87116 | 39033 ft | 484 kts | 182° |
| 2026-05-06 11:55 | 12.70559 | 38.86895 | 39034 ft | 484 kts | 182° |
| 2026-05-06 11:56 | 12.57599 | 38.86541 | 39085 ft | 483 kts | 182° |
| 2026-05-06 11:56 | 12.50918 | 38.86360 | 39089 ft | 483 kts | 182° |
| 2026-05-06 11:57 | 12.44188 | 38.86178 | 39095 ft | 483 kts | 182° |
| 2026-05-06 11:57 | 12.37460 | 38.85994 | 39106 ft | 484 kts | 182° |
| 2026-05-06 11:58 | 12.30724 | 38.85812 | 39105 ft | 484 kts | 182° |
| 2026-05-06 11:58 | 12.23991 | 38.85626 | 39113 ft | 484 kts | 182° |
| 2026-05-06 11:59 | 12.17257 | 38.85438 | 39115 ft | 484 kts | 182° |
| 2026-05-06 11:59 | 12.10530 | 38.85250 | 39121 ft | 484 kts | 182° |
| 2026-05-06 12:00 | 12.03794 | 38.85062 | 39128 ft | 484 kts | 182° |
| 2026-05-06 12:00 | 11.97062 | 38.84875 | 39137 ft | 484 kts | 182° |
| 2026-05-06 12:01 | 11.90330 | 38.84690 | 39145 ft | 484 kts | 182° |
| 2026-05-06 12:01 | 11.83599 | 38.84502 | 39145 ft | 484 kts | 182° |
| 2026-05-06 12:02 | 11.76868 | 38.84315 | 39145 ft | 484 kts | 182° |
| 2026-05-06 12:02 | 11.70141 | 38.84130 | 39149 ft | 484 kts | 182° |
| 2026-05-06 12:03 | 11.63409 | 38.83943 | 39152 ft | 484 kts | 182° |
| 2026-05-06 12:03 | 11.56683 | 38.83756 | 39159 ft | 484 kts | 182° |
| 2026-05-06 12:04 | 11.49956 | 38.83572 | 39163 ft | 484 kts | 182° |
| 2026-05-06 12:04 | 11.43220 | 38.83384 | 39166 ft | 484 kts | 182° |
| 2026-05-06 12:05 | 11.36528 | 38.83200 | 39172 ft | 484 kts | 182° |
| 2026-05-06 12:05 | 11.29741 | 38.83013 | 39172 ft | 485 kts | 182° |
| 2026-05-06 12:06 | 11.23001 | 38.82830 | 39178 ft | 485 kts | 182° |
| 2026-05-06 12:06 | 11.16258 | 38.82646 | 39181 ft | 485 kts | 182° |
| 2026-05-06 12:07 | 11.09556 | 38.82460 | 39181 ft | 485 kts | 182° |
| 2026-05-06 12:07 | 11.02814 | 38.82277 | 39194 ft | 485 kts | 182° |
| 2026-05-06 12:08 | 10.96061 | 38.82091 | 39187 ft | 485 kts | 182° |
| 2026-05-06 12:08 | 10.89316 | 38.81906 | 39200 ft | 485 kts | 182° |
| 2026-05-06 12:09 | 10.82562 | 38.81722 | 39200 ft | 486 kts | 182° |
| 2026-05-06 12:09 | 10.75804 | 38.81536 | 39195 ft | 486 kts | 182° |
| 2026-05-06 12:10 | 10.69044 | 38.81351 | 39214 ft | 486 kts | 182° |
| 2026-05-06 12:10 | 10.62279 | 38.81164 | 39211 ft | 487 kts | 182° |
| 2026-05-06 12:11 | 10.55510 | 38.80977 | 39213 ft | 487 kts | 182° |
| 2026-05-06 12:11 | 10.48734 | 38.80789 | 39224 ft | 487 kts | 182° |
| 2026-05-06 12:12 | 10.41962 | 38.80604 | 39221 ft | 487 kts | 182° |
| 2026-05-06 12:12 | 10.35225 | 38.80418 | 39228 ft | 487 kts | 182° |
| 2026-05-06 12:13 | 10.28443 | 38.80234 | 39234 ft | 488 kts | 182° |
| 2026-05-06 12:13 | 10.21653 | 38.80046 | 39230 ft | 488 kts | 182° |
| 2026-05-06 12:14 | 10.14871 | 38.79857 | 39240 ft | 488 kts | 182° |
| 2026-05-06 12:14 | 10.08088 | 38.79672 | 39237 ft | 488 kts | 182° |
| 2026-05-06 12:15 | 10.01303 | 38.79486 | 39240 ft | 488 kts | 182° |
| 2026-05-06 12:15 | 9.94508 | 38.79299 | 39247 ft | 488 kts | 182° |
| 2026-05-06 12:16 | 9.87717 | 38.79113 | 39248 ft | 488 kts | 182° |
| 2026-05-06 12:16 | 9.80927 | 38.78926 | 39249 ft | 488 kts | 182° |
| 2026-05-06 12:17 | 9.74136 | 38.78740 | 39252 ft | 488 kts | 182° |
| 2026-05-06 12:17 | 9.67344 | 38.78553 | 39264 ft | 488 kts | 182° |
| 2026-05-06 12:18 | 9.60555 | 38.78367 | 39254 ft | 488 kts | 182° |
| 2026-05-06 12:18 | 9.53766 | 38.78181 | 39258 ft | 488 kts | 182° |
| 2026-05-06 12:19 | 9.46978 | 38.77995 | 39259 ft | 488 kts | 182° |
| 2026-05-06 12:19 | 9.40192 | 38.77810 | 39260 ft | 488 kts | 182° |
| 2026-05-06 12:20 | 9.33403 | 38.77623 | 39261 ft | 488 kts | 182° |
| 2026-05-06 12:20 | 9.26623 | 38.77439 | 39258 ft | 488 kts | 182° |
| 2026-05-06 12:21 | 9.19878 | 38.77253 | 39271 ft | 488 kts | 182° |
| 2026-05-06 12:21 | 9.13089 | 38.77056 | 39264 ft | 488 kts | 184° |
| 2026-05-06 12:22 | 9.06388 | 38.76057 | 39260 ft | 487 kts | 194° |
| 2026-05-06 12:22 | 8.99828 | 38.74361 | 39266 ft | 487 kts | 195° |
| 2026-05-06 12:23 | 8.93273 | 38.72663 | 39268 ft | 486 kts | 194° |
| 2026-05-06 12:23 | 8.87773 | 38.71268 | 39264 ft | 486 kts | 194° |
| 2026-05-06 12:24 | 8.81205 | 38.69621 | 39271 ft | 486 kts | 194° |
| 2026-05-06 12:24 | 8.74674 | 38.67988 | 39265 ft | 487 kts | 194° |
| 2026-05-06 12:25 | 8.68100 | 38.66341 | 39263 ft | 487 kts | 194° |
| 2026-05-06 12:25 | 8.61529 | 38.64695 | 39267 ft | 487 kts | 194° |
| 2026-05-06 12:26 | 8.54953 | 38.63047 | 39266 ft | 487 kts | 194° |
| 2026-05-06 12:26 | 8.48373 | 38.61398 | 39260 ft | 487 kts | 194° |
| 2026-05-06 12:27 | 8.41793 | 38.59752 | 39257 ft | 487 kts | 194° |
| 2026-05-06 12:27 | 8.35226 | 38.58103 | 39259 ft | 487 kts | 194° |
| 2026-05-06 12:28 | 8.28651 | 38.56462 | 39261 ft | 486 kts | 194° |
| 2026-05-06 12:28 | 8.22077 | 38.54821 | 39257 ft | 486 kts | 194° |
| 2026-05-06 12:29 | 8.15506 | 38.53179 | 39248 ft | 487 kts | 194° |
| 2026-05-06 12:29 | 8.08935 | 38.51540 | 39250 ft | 486 kts | 194° |
| 2026-05-06 12:30 | 8.02363 | 38.49904 | 39245 ft | 486 kts | 194° |
| 2026-05-06 12:30 | 7.95786 | 38.48267 | 39243 ft | 487 kts | 194° |
| 2026-05-06 12:31 | 7.89212 | 38.46630 | 39238 ft | 487 kts | 194° |
| 2026-05-06 12:31 | 7.82638 | 38.44991 | 39230 ft | 487 kts | 194° |
| 2026-05-06 12:32 | 7.76063 | 38.43355 | 39227 ft | 486 kts | 194° |
| 2026-05-06 12:32 | 7.69493 | 38.41721 | 39219 ft | 486 kts | 194° |
| 2026-05-06 12:33 | 7.62928 | 38.40088 | 39219 ft | 486 kts | 194° |
| 2026-05-06 12:33 | 7.56362 | 38.38454 | 39216 ft | 486 kts | 194° |
| 2026-05-06 12:34 | 7.49788 | 38.36820 | 39201 ft | 486 kts | 194° |
| 2026-05-06 12:34 | 7.43278 | 38.35141 | 39196 ft | 486 kts | 195° |
| 2026-05-06 12:35 | 7.36745 | 38.33344 | 39189 ft | 487 kts | 195° |
| 2026-05-06 12:35 | 7.30204 | 38.31541 | 39194 ft | 487 kts | 195° |
| 2026-05-06 12:36 | 7.23663 | 38.29752 | 39177 ft | 487 kts | 195° |
| 2026-05-06 12:36 | 7.17123 | 38.27975 | 39173 ft | 486 kts | 195° |
| 2026-05-06 12:37 | 7.10591 | 38.26201 | 39165 ft | 486 kts | 195° |
| 2026-05-06 12:37 | 7.04055 | 38.24427 | 39160 ft | 486 kts | 195° |
| 2026-05-06 12:38 | 6.97530 | 38.22655 | 39149 ft | 486 kts | 195° |
| 2026-05-06 12:38 | 6.91002 | 38.20884 | 39138 ft | 486 kts | 195° |
| 2026-05-06 12:39 | 6.84517 | 38.19122 | 39130 ft | 486 kts | 195° |
| 2026-05-06 12:39 | 6.77943 | 38.17338 | 39126 ft | 486 kts | 195° |
| 2026-05-06 12:40 | 6.71455 | 38.15579 | 39118 ft | 486 kts | 195° |
| 2026-05-06 12:40 | 6.64914 | 38.13805 | 39108 ft | 487 kts | 195° |
| 2026-05-06 12:41 | 6.58372 | 38.12031 | 39096 ft | 487 kts | 195° |
| 2026-05-06 12:41 | 6.51830 | 38.10256 | 39088 ft | 487 kts | 195° |
| 2026-05-06 12:42 | 6.45290 | 38.08476 | 39083 ft | 487 kts | 195° |
| 2026-05-06 12:42 | 6.38750 | 38.06692 | 39073 ft | 487 kts | 195° |
| 2026-05-06 12:43 | 6.32202 | 38.04906 | 39063 ft | 487 kts | 195° |
| 2026-05-06 12:43 | 6.25664 | 38.03123 | 39053 ft | 487 kts | 195° |
| 2026-05-06 12:44 | 6.19117 | 38.01340 | 39046 ft | 487 kts | 195° |
| 2026-05-06 12:44 | 6.12568 | 37.99557 | 39033 ft | 488 kts | 195° |
| 2026-05-06 12:45 | 6.06018 | 37.97774 | 39015 ft | 488 kts | 195° |
| 2026-05-06 12:46 | 5.96235 | 37.95111 | 39010 ft | 488 kts | 195° |
| 2026-05-06 12:46 | 5.89685 | 37.93328 | 39011 ft | 488 kts | 195° |
| 2026-05-06 12:47 | 5.83132 | 37.91545 | 38989 ft | 488 kts | 195° |
| 2026-05-06 12:47 | 5.76580 | 37.89764 | 38986 ft | 487 kts | 195° |
| 2026-05-06 12:48 | 5.70033 | 37.87984 | 38979 ft | 488 kts | 195° |
| 2026-05-06 12:48 | 5.63482 | 37.86203 | 38973 ft | 488 kts | 195° |
| 2026-05-06 12:49 | 5.56931 | 37.84423 | 38964 ft | 488 kts | 195° |
| 2026-05-06 12:49 | 5.50381 | 37.82643 | 38953 ft | 488 kts | 195° |
| 2026-05-06 12:50 | 5.43827 | 37.80861 | 38946 ft | 488 kts | 195° |
| 2026-05-06 12:50 | 5.37274 | 37.79084 | 38937 ft | 488 kts | 195° |
| 2026-05-06 12:51 | 5.30724 | 37.77305 | 38929 ft | 487 kts | 195° |
| 2026-05-06 12:51 | 5.24179 | 37.75527 | 38926 ft | 487 kts | 195° |
| 2026-05-06 12:52 | 5.17627 | 37.73748 | 38913 ft | 488 kts | 195° |
| 2026-05-06 12:52 | 5.11077 | 37.71972 | 38910 ft | 487 kts | 195° |
| 2026-05-06 12:53 | 5.04532 | 37.70195 | 38901 ft | 487 kts | 195° |
| 2026-05-06 12:53 | 4.98032 | 37.68433 | 38898 ft | 487 kts | 195° |
| 2026-05-06 12:54 | 4.91454 | 37.66649 | 38887 ft | 487 kts | 195° |
| 2026-05-06 12:54 | 4.84959 | 37.64887 | 38884 ft | 487 kts | 195° |
| 2026-05-06 12:55 | 4.78421 | 37.63116 | 38882 ft | 487 kts | 195° |
| 2026-05-06 12:55 | 4.71880 | 37.61343 | 38870 ft | 487 kts | 195° |
| 2026-05-06 12:56 | 4.65336 | 37.59570 | 38865 ft | 487 kts | 195° |
| 2026-05-06 12:56 | 4.58786 | 37.57797 | 38860 ft | 487 kts | 195° |
| 2026-05-06 12:57 | 4.52233 | 37.56018 | 38859 ft | 488 kts | 195° |
| 2026-05-06 12:57 | 4.45677 | 37.54244 | 38851 ft | 488 kts | 195° |
| 2026-05-06 12:58 | 4.39125 | 37.52470 | 38850 ft | 488 kts | 195° |
| 2026-05-06 12:58 | 4.32562 | 37.50694 | 38841 ft | 488 kts | 195° |
| 2026-05-06 12:59 | 4.26010 | 37.48921 | 38839 ft | 488 kts | 195° |
| 2026-05-06 12:59 | 4.19450 | 37.47145 | 38833 ft | 488 kts | 195° |
| 2026-05-06 13:00 | 4.12886 | 37.45368 | 38833 ft | 488 kts | 195° |
| 2026-05-06 13:00 | 4.06369 | 37.43605 | 38826 ft | 488 kts | 195° |
| 2026-05-06 13:01 | 3.99814 | 37.41831 | 38823 ft | 488 kts | 195° |
| 2026-05-06 13:01 | 3.93282 | 37.39962 | 38821 ft | 488 kts | 197° |
| 2026-05-06 13:02 | 3.86774 | 37.38014 | 38817 ft | 488 kts | 197° |
| 2026-05-06 13:02 | 3.80270 | 37.36068 | 38815 ft | 488 kts | 197° |
| 2026-05-06 13:03 | 3.73762 | 37.34138 | 38811 ft | 488 kts | 197° |
| 2026-05-06 13:03 | 3.67247 | 37.32215 | 38806 ft | 488 kts | 197° |
| 2026-05-06 13:04 | 3.60742 | 37.30300 | 38806 ft | 487 kts | 197° |
| 2026-05-06 13:04 | 3.54242 | 37.28374 | 38799 ft | 486 kts | 197° |
| 2026-05-06 13:05 | 3.47755 | 37.26460 | 38797 ft | 486 kts | 197° |
| 2026-05-06 13:05 | 3.41265 | 37.24547 | 38798 ft | 486 kts | 197° |
| 2026-05-06 13:06 | 3.34777 | 37.22634 | 38799 ft | 486 kts | 197° |
| 2026-05-06 13:06 | 3.28285 | 37.20720 | 38799 ft | 486 kts | 197° |
| 2026-05-06 13:07 | 3.21798 | 37.18806 | 38793 ft | 486 kts | 197° |
| 2026-05-06 13:07 | 3.15317 | 37.16893 | 38786 ft | 485 kts | 197° |
| 2026-05-06 13:08 | 3.08840 | 37.14981 | 38783 ft | 485 kts | 197° |
| 2026-05-06 13:08 | 3.02416 | 37.13088 | 38847 ft | 484 kts | 197° |
| 2026-05-06 13:09 | 2.95956 | 37.11185 | 38850 ft | 484 kts | 197° |
| 2026-05-06 13:09 | 2.89498 | 37.09280 | 38854 ft | 484 kts | 197° |
| 2026-05-06 13:10 | 2.84084 | 37.07682 | 38851 ft | 484 kts | 197° |
| 2026-05-06 13:10 | 2.77614 | 37.05777 | 38855 ft | 484 kts | 197° |
| 2026-05-06 13:11 | 2.71186 | 37.03882 | 38863 ft | 485 kts | 197° |
| 2026-05-06 13:11 | 2.64715 | 37.01975 | 38861 ft | 485 kts | 197° |
| 2026-05-06 13:12 | 2.58236 | 37.00066 | 38862 ft | 485 kts | 197° |
| 2026-05-06 13:12 | 2.51758 | 36.98157 | 38867 ft | 486 kts | 197° |
| 2026-05-06 13:13 | 2.45273 | 36.96245 | 38872 ft | 486 kts | 197° |
| 2026-05-06 13:13 | 2.38792 | 36.94337 | 38869 ft | 485 kts | 197° |
| 2026-05-06 13:14 | 2.32315 | 36.92429 | 38881 ft | 485 kts | 197° |
| 2026-05-06 13:14 | 2.25843 | 36.90524 | 38884 ft | 485 kts | 197° |
| 2026-05-06 13:15 | 2.19374 | 36.88620 | 38887 ft | 484 kts | 197° |
| 2026-05-06 13:15 | 2.12913 | 36.86718 | 38897 ft | 484 kts | 197° |
| 2026-05-06 13:16 | 2.06451 | 36.84814 | 38900 ft | 484 kts | 197° |
| 2026-05-06 13:16 | 1.99988 | 36.82911 | 38908 ft | 484 kts | 197° |
| 2026-05-06 13:17 | 1.93570 | 36.81023 | 38926 ft | 484 kts | 197° |
| 2026-05-06 13:17 | 1.87114 | 36.79122 | 38954 ft | 483 kts | 197° |
| 2026-05-06 13:18 | 1.80672 | 36.77224 | 38981 ft | 483 kts | 197° |
| 2026-05-06 13:18 | 1.74223 | 36.75327 | 38992 ft | 483 kts | 197° |
| 2026-05-06 13:19 | 1.67767 | 36.73428 | 38993 ft | 484 kts | 197° |
| 2026-05-06 13:19 | 1.61301 | 36.71525 | 38992 ft | 485 kts | 197° |
| 2026-05-06 13:20 | 1.54831 | 36.69621 | 38997 ft | 484 kts | 197° |
| 2026-05-06 13:20 | 1.48363 | 36.67718 | 39009 ft | 484 kts | 197° |
| 2026-05-06 13:21 | 1.41896 | 36.65816 | 39028 ft | 484 kts | 197° |
| 2026-05-06 13:21 | 1.35426 | 36.63911 | 39031 ft | 484 kts | 197° |
| 2026-05-06 13:22 | 1.28964 | 36.62010 | 39042 ft | 484 kts | 197° |
| 2026-05-06 13:22 | 1.22500 | 36.60108 | 39050 ft | 484 kts | 197° |
| 2026-05-06 13:23 | 1.16044 | 36.58209 | 39061 ft | 484 kts | 197° |
| 2026-05-06 13:23 | 1.09590 | 36.56309 | 39067 ft | 483 kts | 197° |
| 2026-05-06 13:24 | 1.03179 | 36.54443 | 39085 ft | 483 kts | 194° |
| 2026-05-06 13:24 | 0.96551 | 36.53411 | 39090 ft | 482 kts | 183° |
| 2026-05-06 13:25 | 0.89845 | 36.53417 | 39100 ft | 482 kts | 179° |
| 2026-05-06 13:25 | 0.83137 | 36.53542 | 39103 ft | 482 kts | 179° |
| 2026-05-06 13:26 | 0.76430 | 36.53644 | 39105 ft | 482 kts | 179° |
| 2026-05-06 13:26 | 0.69716 | 36.53720 | 39113 ft | 482 kts | 179° |
| 2026-05-06 13:27 | 0.63012 | 36.53788 | 39118 ft | 482 kts | 179° |
| 2026-05-06 13:27 | 0.56305 | 36.53856 | 39120 ft | 482 kts | 179° |
| 2026-05-06 13:28 | 0.49598 | 36.53926 | 39121 ft | 482 kts | 179° |
| 2026-05-06 13:28 | 0.42895 | 36.53996 | 39129 ft | 482 kts | 179° |
| 2026-05-06 13:29 | 0.36191 | 36.54070 | 39134 ft | 482 kts | 179° |
| 2026-05-06 13:29 | 0.29485 | 36.54141 | 39130 ft | 482 kts | 179° |
| 2026-05-06 13:30 | 0.22780 | 36.54210 | 39128 ft | 482 kts | 179° |
| 2026-05-06 13:30 | 0.16074 | 36.54279 | 39129 ft | 481 kts | 179° |
| 2026-05-06 13:31 | 0.09377 | 36.54349 | 39129 ft | 481 kts | 179° |
| 2026-05-06 13:31 | 0.02732 | 36.54419 | 39130 ft | 481 kts | 179° |
| 2026-05-06 13:32 | -0.03953 | 36.54491 | 39131 ft | 480 kts | 179° |
| 2026-05-06 13:32 | -0.10644 | 36.54561 | 39126 ft | 480 kts | 179° |
| 2026-05-06 13:33 | -0.17324 | 36.54630 | 39160 ft | 480 kts | 179° |
| 2026-05-06 13:33 | -0.24004 | 36.54702 | 39163 ft | 480 kts | 179° |
| 2026-05-06 13:34 | -0.30684 | 36.54773 | 39167 ft | 480 kts | 179° |
| 2026-05-06 13:34 | -0.37370 | 36.54845 | 39167 ft | 481 kts | 179° |
| 2026-05-06 13:35 | -0.44070 | 36.54915 | 39166 ft | 482 kts | 179° |
| 2026-05-06 13:35 | -0.50773 | 36.54983 | 39167 ft | 482 kts | 179° |
| 2026-05-06 13:36 | -0.57489 | 36.55054 | 39164 ft | 483 kts | 179° |
| 2026-05-06 13:36 | -0.64206 | 36.55126 | 39167 ft | 482 kts | 179° |
| 2026-05-06 13:37 | -0.70917 | 36.55196 | 39166 ft | 483 kts | 179° |
| 2026-05-06 13:37 | -0.77639 | 36.55267 | 39164 ft | 483 kts | 179° |
| 2026-05-06 13:38 | -0.84358 | 36.55337 | 39167 ft | 483 kts | 179° |
| 2026-05-06 13:38 | -0.91075 | 36.55408 | 39175 ft | 483 kts | 179° |
| 2026-05-06 13:39 | -0.97795 | 36.55479 | 39175 ft | 483 kts | 179° |
| 2026-05-06 13:39 | -1.04511 | 36.55811 | 39174 ft | 483 kts | 175° |
| 2026-05-06 13:40 | -1.11215 | 36.56383 | 39177 ft | 484 kts | 175° |
| 2026-05-06 13:40 | -1.17928 | 36.56966 | 39175 ft | 484 kts | 175° |
| 2026-05-06 13:41 | -1.24644 | 36.57526 | 39173 ft | 485 kts | 175° |
| 2026-05-06 13:41 | -1.31368 | 36.58073 | 39175 ft | 485 kts | 175° |
| 2026-05-06 13:42 | -1.38094 | 36.58618 | 39181 ft | 485 kts | 175° |
| 2026-05-06 13:42 | -1.44775 | 36.59163 | 39183 ft | 485 kts | 175° |
| 2026-05-06 13:43 | -1.51496 | 36.59712 | 39177 ft | 485 kts | 175° |
| 2026-05-06 13:43 | -1.58229 | 36.60261 | 39176 ft | 485 kts | 175° |
| 2026-05-06 13:44 | -1.64965 | 36.60809 | 39176 ft | 486 kts | 175° |
| 2026-05-06 13:44 | -1.71708 | 36.61359 | 39177 ft | 486 kts | 175° |
| 2026-05-06 13:45 | -1.78449 | 36.61910 | 39175 ft | 486 kts | 175° |
| 2026-05-06 13:45 | -1.88569 | 36.62735 | 39158 ft | 486 kts | 175° |
| 2026-05-06 13:46 | -1.95318 | 36.63283 | 39153 ft | 486 kts | 175° |
| 2026-05-06 13:46 | -2.02062 | 36.63833 | 39149 ft | 486 kts | 175° |
| 2026-05-06 13:47 | -2.05435 | 36.64109 | 38980 ft | 489 kts | 175° |
| 2026-05-06 13:47 | -2.08849 | 36.64388 | 38158 ft | 493 kts | 175° |
| 2026-05-06 13:47 | -2.12264 | 36.64666 | 37377 ft | 491 kts | 175° |
| 2026-05-06 13:47 | -2.15659 | 36.64943 | 36529 ft | 489 kts | 175° |
| 2026-05-06 13:48 | -2.19053 | 36.65219 | 35642 ft | 489 kts | 175° |
| 2026-05-06 13:48 | -2.22452 | 36.65496 | 34585 ft | 492 kts | 175° |
| 2026-05-06 13:48 | -2.25833 | 36.65772 | 33461 ft | 496 kts | 175° |
| 2026-05-06 13:48 | -2.29329 | 36.66058 | 32268 ft | 500 kts | 175° |
| 2026-05-06 13:49 | -2.32816 | 36.66342 | 31056 ft | 504 kts | 175° |
| 2026-05-06 13:49 | -2.36301 | 36.66626 | 30195 ft | 500 kts | 175° |
| 2026-05-06 13:49 | -2.39709 | 36.66905 | 29368 ft | 495 kts | 175° |
| 2026-05-06 13:49 | -2.43128 | 36.67184 | 28531 ft | 491 kts | 175° |
| 2026-05-06 13:50 | -2.46514 | 36.67452 | 27718 ft | 486 kts | 176° |
| 2026-05-06 13:50 | -2.49863 | 36.67384 | 26918 ft | 479 kts | 186° |
| 2026-05-06 13:50 | -2.53146 | 36.66925 | 26138 ft | 474 kts | 189° |
| 2026-05-06 13:50 | -2.56386 | 36.66380 | 25342 ft | 470 kts | 189° |
| 2026-05-06 13:51 | -2.59596 | 36.65832 | 24576 ft | 466 kts | 189° |
| 2026-05-06 13:51 | -2.62778 | 36.65315 | 23811 ft | 461 kts | 188° |
| 2026-05-06 13:51 | -2.65938 | 36.64831 | 23056 ft | 457 kts | 188° |
| 2026-05-06 13:51 | -2.69067 | 36.64373 | 22318 ft | 453 kts | 188° |
| 2026-05-06 13:52 | -2.72167 | 36.63931 | 21586 ft | 447 kts | 187° |
| 2026-05-06 13:52 | -2.75243 | 36.63507 | 20863 ft | 444 kts | 188° |
| 2026-05-06 13:52 | -2.78278 | 36.63077 | 20168 ft | 437 kts | 188° |
| 2026-05-06 13:52 | -2.80301 | 36.62780 | 19712 ft | 433 kts | 189° |
| 2026-05-06 13:53 | -2.83257 | 36.62336 | 19040 ft | 427 kts | 188° |
| 2026-05-06 13:53 | -2.86159 | 36.61932 | 18391 ft | 426 kts | 188° |
| 2026-05-06 13:53 | -2.89123 | 36.61525 | 17724 ft | 423 kts | 188° |
| 2026-05-06 13:53 | -2.91999 | 36.61128 | 17081 ft | 421 kts | 188° |
| 2026-05-06 13:54 | -2.94928 | 36.60718 | 16436 ft | 418 kts | 188° |
| 2026-05-06 13:54 | -2.97766 | 36.60318 | 15812 ft | 415 kts | 188° |
| 2026-05-06 13:54 | -3.00613 | 36.59913 | 15185 ft | 412 kts | 188° |
| 2026-05-06 13:54 | -3.03444 | 36.59513 | 14548 ft | 409 kts | 188° |
| 2026-05-06 13:55 | -3.06256 | 36.59115 | 14049 ft | 403 kts | 188° |
| 2026-05-06 13:55 | -3.08984 | 36.58724 | 13879 ft | 388 kts | 188° |
| 2026-05-06 13:55 | -3.11613 | 36.58350 | 13708 ft | 377 kts | 188° |
| 2026-05-06 13:55 | -3.14188 | 36.57991 | 13545 ft | 370 kts | 188° |
| 2026-05-06 13:56 | -3.16713 | 36.57639 | 13379 ft | 363 kts | 188° |
| 2026-05-06 13:56 | -3.19180 | 36.57331 | 13210 ft | 348 kts | 182° |
| 2026-05-06 13:56 | -3.21532 | 36.57688 | 13060 ft | 340 kts | 160° |
| 2026-05-06 13:56 | -3.23581 | 36.58788 | 12843 ft | 324 kts | 145° |
| 2026-05-06 13:57 | -3.25361 | 36.60037 | 12466 ft | 305 kts | 144° |
| 2026-05-06 13:57 | -3.27054 | 36.61232 | 12092 ft | 294 kts | 144° |
| 2026-05-06 13:57 | -3.28739 | 36.62418 | 11772 ft | 298 kts | 145° |
| 2026-05-06 13:57 | -3.30453 | 36.63617 | 11439 ft | 302 kts | 145° |
| 2026-05-06 13:58 | -3.32190 | 36.64831 | 11101 ft | 307 kts | 145° |
| 2026-05-06 13:58 | -3.33940 | 36.66049 | 10809 ft | 301 kts | 145° |
| 2026-05-06 13:58 | -3.35629 | 36.67222 | 10440 ft | 290 kts | 145° |
| 2026-05-06 13:58 | -3.37293 | 36.68378 | 10124 ft | 293 kts | 145° |
| 2026-05-06 13:59 | -3.38961 | 36.69534 | 9612 ft | 288 kts | 146° |
| 2026-05-06 13:59 | -3.40567 | 36.70646 | 9399 ft | 274 kts | 146° |
| 2026-05-06 13:59 | -3.42130 | 36.71726 | 9238 ft | 270 kts | 145° |
| 2026-05-06 13:59 | -3.43535 | 36.72890 | 9075 ft | 256 kts | 126° |
| 2026-05-06 14:00 | -3.44238 | 36.74477 | 8851 ft | 249 kts | 101° |
| 2026-05-06 14:00 | -3.44341 | 36.76193 | 8606 ft | 246 kts | 89° |
| 2026-05-06 14:00 | -3.44253 | 36.77882 | 8312 ft | 242 kts | 87° |
| 2026-05-06 14:00 | -3.44155 | 36.79553 | 7991 ft | 239 kts | 88° |
| 2026-05-06 14:01 | -3.44070 | 36.81193 | 7709 ft | 232 kts | 88° |
| 2026-05-06 14:01 | -3.44003 | 36.82785 | 7393 ft | 226 kts | 88° |
| 2026-05-06 14:01 | -3.43938 | 36.84341 | 7088 ft | 221 kts | 89° |
| 2026-05-06 14:01 | -3.43872 | 36.85861 | 6787 ft | 217 kts | 88° |
| 2026-05-06 14:02 | -3.43802 | 36.87351 | 6519 ft | 211 kts | 89° |
| 2026-05-06 14:02 | -3.43741 | 36.88801 | 6235 ft | 206 kts | 89° |
| 2026-05-06 14:02 | -3.43681 | 36.90213 | 5961 ft | 200 kts | 88° |
| 2026-05-06 14:02 | -3.43624 | 36.91586 | 5699 ft | 196 kts | 88° |
| 2026-05-06 14:03 | -3.43565 | 36.92937 | 5440 ft | 189 kts | 88° |
| 2026-05-06 14:03 | -3.43510 | 36.94193 | 5204 ft | 173 kts | 88° |
| 2026-05-06 14:03 | -3.43461 | 36.95340 | 4968 ft | 156 kts | 88° |
| 2026-05-06 14:03 | -3.43419 | 36.96377 | 4818 ft | 146 kts | 88° |
| 2026-05-06 14:04 | -3.43373 | 36.97377 | 4613 ft | 146 kts | 88° |
| 2026-05-06 14:04 | -3.43331 | 36.98389 | 4415 ft | 145 kts | 87° |
| 2026-05-06 14:04 | -3.43287 | 36.99399 | 4225 ft | 145 kts | 87° |
| 2026-05-06 14:04 | -3.43243 | 37.00420 | 4027 ft | 145 kts | 87° |
| 2026-05-06 14:05 | -3.43201 | 37.01412 | 3830 ft | 145 kts | 87° |
| 2026-05-06 14:05 | -3.43157 | 37.02420 | 3641 ft | 145 kts | 87° |
| 2026-05-06 14:05 | -3.43113 | 37.03428 | 3419 ft | 145 kts | 87° |
| 2026-05-06 14:05 | -3.43071 | 37.04426 | 3248 ft | 144 kts | 87° |
| 2026-05-06 14:06 | -3.43031 | 37.05429 | 3060 ft | 144 kts | 87° |
| 2026-05-06 14:06 | -3.42988 | 37.06429 | 2949 ft | 140 kts | 87° |
| 2026-05-06 14:06 | -3.42952 | 37.07251 | 2939 ft | 88 kts | 87° |
| 2026-05-06 14:06 | -3.42933 | 37.07660 | 2933 ft | 44 kts | 87° |
| 2026-05-06 14:07 | -3.42920 | 37.07944 | 2942 ft | 38 kts | 88° |
| 2026-05-06 14:07 | -3.42899 | 37.08103 | 2932 ft | 17 kts | 63° |
| 2026-05-06 14:07 | -3.42858 | 37.08176 | 2939 ft | 3 kts | 100° |
| 2026-05-06 14:07 | -3.42877 | 37.08182 | 2942 ft | 3 kts | 188° |
| 2026-05-06 14:08 | -3.42896 | 37.08163 | 2931 ft | 5 kts | 240° |
| 2026-05-06 14:08 | -3.42911 | 37.08124 | 2933 ft | 7 kts | 262° |
| 2026-05-06 14:08 | -3.42920 | 37.07996 | 2942 ft | 28 kts | 266° |
| 2026-05-06 14:08 | -3.42928 | 37.07802 | 2936 ft | 28 kts | 267° |
| 2026-05-06 14:09 | -3.42936 | 37.07609 | 2939 ft | 28 kts | 268° |
| 2026-05-06 14:09 | -3.42944 | 37.07417 | 2932 ft | 28 kts | 268° |
| 2026-05-06 14:09 | -3.42940 | 37.07225 | 2930 ft | 28 kts | 281° |
| 2026-05-06 14:09 | -3.42878 | 37.07072 | 2941 ft | 20 kts | 298° |
| 2026-05-06 14:10 | -3.42806 | 37.06953 | 2932 ft | 20 kts | 303° |
| 2026-05-06 14:10 | -3.42725 | 37.06859 | 2931 ft | 14 kts | 313° |
| 2026-05-06 14:10 | -3.42714 | 37.06798 | 2941 ft | 9 kts | 265° |
| 2026-05-06 14:10 | -3.42717 | 37.06736 | 2937 ft | 9 kts | 268° |
| 2026-05-06 14:11 | -3.42720 | 37.06675 | 2941 ft | 9 kts | 268° |
| 2026-05-06 14:11 | -3.42723 | 37.06613 | 2941 ft | 9 kts | 268° |
| 2026-05-06 14:11 | -3.42725 | 37.06551 | 2936 ft | 9 kts | 268° |
| 2026-05-06 14:11 | -3.42728 | 37.06489 | 2941 ft | 9 kts | 268° |
| 2026-05-06 14:12 | -3.42699 | 37.06440 | 2941 ft | 9 kts | 337° |
| 2026-05-06 14:12 | -3.42636 | 37.06438 | 2936 ft | 9 kts | 359° |
| 2026-05-06 14:12 | -3.42575 | 37.06435 | 2935 ft | 9 kts | 356° |
| 2026-05-06 14:12 | -3.42542 | 37.06478 | 2937 ft | 9 kts | 84° |
| 2026-05-06 14:13 | -3.42541 | 37.06520 | 2932 ft | 0 kts | 88° |